Observation data for Canadian on 11/19/2019      Previous  Date  Next       Current Mesonet Observations  Soil Data  Daily Summary Page  Observations in Plain Language
KCA1 190600Z 27004KT 06/01 A2994 RMK A01 T00560008  RH  071%=      5-min Rain = 0
KCA1 190601Z 27004KT 06/01 A2994 RMK A01 T00580009  RH  071%=      5-min Rain = 0
KCA1 190602Z 27004KT 06/01 A2994 RMK A01 T00590009  RH  071%=      5-min Rain = 0
KCA1 190603Z 27005KT 06/01 A2994 RMK A01 T00590009  RH  070%=      5-min Rain = 0
KCA1 190604Z 27005KT 06/01 A2994 RMK A01 T00590009  RH  070%=      5-min Rain = 0
KCA1 190605Z 28005KT 06/01 A2994 RMK A01 T00590009  RH  070%=      5-min Rain = 0
KCA1 190606Z 28005KT 06/01 A2994 RMK A01 T00590009  RH  070%=      5-min Rain = 0
KCA1 190607Z 29006KT 06/01 A2994 RMK A01 T00580009  RH  070%=      5-min Rain = 0
KCA1 190608Z 29006KT 06/01 A2994 RMK A01 T00570008  RH  071%=      5-min Rain = 0
KCA1 190609Z 30006KT 06/01 A2994 RMK A01 T00550007  RH  071%=      5-min Rain = 0
KCA1 190610Z 30006KT 05/01 A2994 RMK A01 T00540007  RH  072%=      5-min Rain = 0
KCA1 190611Z 30006KT 05/01 A2994 RMK A01 T00540008  RH  072%=      5-min Rain = 0
KCA1 190612Z 30006KT 05/01 A2994 RMK A01 T00540008  RH  072%=      5-min Rain = 0
KCA1 190613Z 30006KT 06/01 A2994 RMK A01 T00550008  RH  072%=      5-min Rain = 0
KCA1 190614Z 30006KT 06/01 A2994 RMK A01 T00550008  RH  072%=      5-min Rain = 0
KCA1 190615Z 30006KT 06/01 A2994 RMK A01 T00550008  RH  072%=      5-min Rain = 0
KCA1 190616Z 30006KT 06/01 A2994 RMK A01 T00550008  RH  072%=      5-min Rain = 0
KCA1 190617Z 30006KT 05/01 A2994 RMK A01 T00540008  RH  072%=      5-min Rain = 0
KCA1 190618Z 30006KT 05/01 A2994 RMK A01 T00540007  RH  072%=      5-min Rain = 0
KCA1 190619Z 30006KT 05/01 A2994 RMK A01 T00530006  RH  072%=      5-min Rain = 0
KCA1 190620Z 30006KT 05/01 A2994 RMK A01 T00520007  RH  073%=      5-min Rain = 0
KCA1 190621Z 30006KT 05/01 A2994 RMK A01 T00520008  RH  073%=      5-min Rain = 0
KCA1 190622Z 30006KT 05/01 A2994 RMK A01 T00530008  RH  073%=      5-min Rain = 0
KCA1 190623Z 30005KT 05/01 A2994 RMK A01 T00530008  RH  073%=      5-min Rain = 0
KCA1 190624Z 30005KT 05/01 A2994 RMK A01 T00530008  RH  073%=      5-min Rain = 0
KCA1 190625Z 30005KT 05/01 A2994 RMK A01 T00540009  RH  073%=      5-min Rain = 0
KCA1 190626Z 30005KT 05/01 A2994 RMK A01 T00540009  RH  072%=      5-min Rain = 0
KCA1 190627Z 31004KT 06/01 A2994 RMK A01 T00550009  RH  072%=      5-min Rain = 0
KCA1 190628Z 32004KT 06/01 A2994 RMK A01 T00550009  RH  072%=      5-min Rain = 0
KCA1 190629Z 32005KT 06/01 A2994 RMK A01 T00550008  RH  072%=      5-min Rain = 0
KCA1 190630Z 33004KT 06/01 A2994 RMK A01 T00550009  RH  072%=      5-min Rain = 0
KCA1 190631Z 33005KT 06/01 A2994 RMK A01 T00550008  RH  072%=      5-min Rain = 0
KCA1 190632Z 33005KT 05/01 A2994 RMK A01 T00540007  RH  072%=      5-min Rain = 0
KCA1 190633Z 33005KT 05/01 A2993 RMK A01 T00530007  RH  072%=      5-min Rain = 0
KCA1 190634Z 32005KT 05/01 A2993 RMK A01 T00520007  RH  072%=      5-min Rain = 0
KCA1 190635Z 32005KT 05/01 A2994 RMK A01 T00520007  RH  073%=      5-min Rain = 0
KCA1 190636Z 32005KT 05/01 A2994 RMK A01 T00530007  RH  073%=      5-min Rain = 0
KCA1 190637Z 32005KT 05/01 A2994 RMK A01 T00520007  RH  073%=      5-min Rain = 0
KCA1 190638Z 31005KT 05/01 A2994 RMK A01 T00530008  RH  073%=      5-min Rain = 0
KCA1 190639Z 31005KT 05/01 A2994 RMK A01 T00530008  RH  072%=      5-min Rain = 0
KCA1 190640Z 31006KT 05/01 A2994 RMK A01 T00530007  RH  072%=      5-min Rain = 0
KCA1 190641Z 31006KT 05/01 A2994 RMK A01 T00530008  RH  072%=      5-min Rain = 0
KCA1 190642Z 30006KT 05/01 A2994 RMK A01 T00540008  RH  072%=      5-min Rain = 0
KCA1 190643Z 30006KT 06/01 A2994 RMK A01 T00550009  RH  072%=      5-min Rain = 0
KCA1 190644Z 30006KT 06/01 A2994 RMK A01 T00560009  RH  072%=      5-min Rain = 0
KCA1 190645Z 30006KT 06/01 A2994 RMK A01 T00560009  RH  071%=      5-min Rain = 0
KCA1 190646Z 31006KT 06/01 A2994 RMK A01 T00560009  RH  071%=      5-min Rain = 0
KCA1 190647Z 32006KT 06/01 A2994 RMK A01 T00570009  RH  071%=      5-min Rain = 0
KCA1 190648Z 32006KT 06/01 A2994 RMK A01 T00560008  RH  071%=      5-min Rain = 0
KCA1 190649Z 32006KT 06/01 A2994 RMK A01 T00560008  RH  071%=      5-min Rain = 0
KCA1 190650Z 33006KT 06/01 A2994 RMK A01 T00560008  RH  071%=      5-min Rain = 0
KCA1 190651Z 32006KT 06/01 A2994 RMK A01 T00570009  RH  071%=      5-min Rain = 0
KCA1 190652Z 32006KT 06/01 A2994 RMK A01 T00570009  RH  071%=      5-min Rain = 0
KCA1 190653Z 32006KT 06/01 A2994 RMK A01 T00590009  RH  071%=      5-min Rain = 0
KCA1 190654Z 32006KT 06/01 A2994 RMK A01 T00590009  RH  070%=      5-min Rain = 0
KCA1 190655Z 32006KT 06/01 A2994 RMK A01 T00600009  RH  070%=      5-min Rain = 0
KCA1 190656Z 32006KT 06/01 A2994 RMK A01 T00610010  RH  070%=      5-min Rain = 0
KCA1 190657Z 32006KT 06/01 A2994 RMK A01 T00610009  RH  069%=      5-min Rain = 0
KCA1 190658Z 32006KT 06/01 A2994 RMK A01 T00610010  RH  069%=      5-min Rain = 0
KCA1 190659Z 32006KT 06/01 A2994 RMK A01 T00620010  RH  069%=      5-min Rain = 0
KCA1 190700Z 32006KT 06/01 A2994 RMK A01 T00640011  RH  069%=      5-min Rain = 0
KCA1 190701Z 33006KT 07/01 A2994 RMK A01 T00660012  RH  068%=      5-min Rain = 0
KCA1 190702Z 32005KT 07/01 A2994 RMK A01 T00680012  RH  067%=      5-min Rain = 0
KCA1 190703Z 32005KT 07/01 A2994 RMK A01 T00680011  RH  067%=      5-min Rain = 0
KCA1 190704Z 32005KT 07/01 A2994 RMK A01 T00690011  RH  067%=      5-min Rain = 0
KCA1 190705Z 32005KT 07/01 A2994 RMK A01 T00700012  RH  066%=      5-min Rain = 0
KCA1 190706Z 32005KT 07/01 A2994 RMK A01 T00710012  RH  066%=      5-min Rain = 0
KCA1 190707Z 32005KT 07/01 A2994 RMK A01 T00710012  RH  066%=      5-min Rain = 0
KCA1 190708Z 32005KT 07/01 A2994 RMK A01 T00720012  RH  066%=      5-min Rain = 0
KCA1 190709Z 31005KT 07/01 A2994 RMK A01 T00720012  RH  065%=      5-min Rain = 0
KCA1 190710Z 31006KT 07/01 A2994 RMK A01 T00740012  RH  065%=      5-min Rain = 0
KCA1 190711Z 31006KT 07/01 A2995 RMK A01 T00740012  RH  065%=      5-min Rain = 0
KCA1 190712Z 31006KT 07/01 A2995 RMK A01 T00740011  RH  064%=      5-min Rain = 0
KCA1 190713Z 30006KT 07/01 A2995 RMK A01 T00740011  RH  064%=      5-min Rain = 0
KCA1 190714Z 30006KT 07/01 A2995 RMK A01 T00740011  RH  064%=      5-min Rain = 0
KCA1 190715Z 29006KT 07/01 A2995 RMK A01 T00740011  RH  064%=      5-min Rain = 0
KCA1 190716Z 29006KT 07/01 A2995 RMK A01 T00740011  RH  064%=      5-min Rain = 0
KCA1 190717Z 29006KT 07/01 A2995 RMK A01 T00740011  RH  064%=      5-min Rain = 0
KCA1 190718Z 29006KT 07/01 A2995 RMK A01 T00730010  RH  064%=      5-min Rain = 0
KCA1 190719Z 29006KT 07/01 A2995 RMK A01 T00710010  RH  065%=      5-min Rain = 0
KCA1 190720Z 29006KT 07/01 A2995 RMK A01 T00700009  RH  065%=      5-min Rain = 0
KCA1 190721Z 29006KT 07/01 A2995 RMK A01 T00690010  RH  066%=      5-min Rain = 0
KCA1 190722Z 30006KT 07/01 A2995 RMK A01 T00690010  RH  066%=      5-min Rain = 0
KCA1 190723Z 30006KT 07/01 A2995 RMK A01 T00680009  RH  066%=      5-min Rain = 0
KCA1 190724Z 30005KT 07/01 A2995 RMK A01 T00670010  RH  067%=      5-min Rain = 0
KCA1 190725Z 30005KT 07/01 A2995 RMK A01 T00670010  RH  067%=      5-min Rain = 0
KCA1 190726Z 30005KT 07/01 A2995 RMK A01 T00670010  RH  067%=      5-min Rain = 0
KCA1 190727Z 30005KT 07/01 A2995 RMK A01 T00660010  RH  067%=      5-min Rain = 0
KCA1 190728Z 30005KT 07/01 A2995 RMK A01 T00650009  RH  067%=      5-min Rain = 0
KCA1 190729Z 30005KT 07/01 A2995 RMK A01 T00650009  RH  067%=      5-min Rain = 0
KCA1 190730Z 30005KT 07/01 A2995 RMK A01 T00650009  RH  068%=      5-min Rain = 0
KCA1 190731Z 31005KT 07/01 A2995 RMK A01 T00650009  RH  068%=      5-min Rain = 0
KCA1 190732Z 30005KT 06/01 A2995 RMK A01 T00630008  RH  068%=      5-min Rain = 0
KCA1 190733Z 31005KT 06/01 A2995 RMK A01 T00620008  RH  068%=      5-min Rain = 0
KCA1 190734Z 30006KT 06/01 A2995 RMK A01 T00630009  RH  068%=      5-min Rain = 0
KCA1 190735Z 30005KT 06/01 A2995 RMK A01 T00630009  RH  068%=      5-min Rain = 0
KCA1 190736Z 30005KT 06/01 A2995 RMK A01 T00640009  RH  068%=      5-min Rain = 0
KCA1 190737Z 31005KT 06/01 A2995 RMK A01 T00640009  RH  068%=      5-min Rain = 0
KCA1 190738Z 31005KT 06/01 A2995 RMK A01 T00640009  RH  068%=      5-min Rain = 0
KCA1 190739Z 30005KT 06/01 A2995 RMK A01 T00630008  RH  068%=      5-min Rain = 0
KCA1 190740Z 30005KT 06/01 A2995 RMK A01 T00620008  RH  068%=      5-min Rain = 0
KCA1 190741Z 30005KT 06/01 A2995 RMK A01 T00630009  RH  068%=      5-min Rain = 0
KCA1 190742Z 30005KT 06/01 A2995 RMK A01 T00630009  RH  068%=      5-min Rain = 0
KCA1 190743Z 30005KT 06/01 A2995 RMK A01 T00630009  RH  068%=      5-min Rain = 0
KCA1 190744Z 30005KT 06/01 A2995 RMK A01 T00630008  RH  068%=      5-min Rain = 0
KCA1 190745Z 29005KT 06/01 A2995 RMK A01 T00620007  RH  068%=      5-min Rain = 0
KCA1 190746Z 29005KT 06/01 A2995 RMK A01 T00590005  RH  068%=      5-min Rain = 0
KCA1 190747Z 30005KT 06/00 A2995 RMK A01 T00550004  RH  069%=      5-min Rain = 0
KCA1 190748Z 30005KT 05/00 A2995 RMK A01 T00510002  RH  070%=      5-min Rain = 0
KCA1 190749Z 30005KT 05/00 A2995 RMK A01 T00480001  RH  072%=      5-min Rain = 0
KCA1 190750Z 31005KT 04/M00 A2995 RMK A01 T00441001  RH  072%=      5-min Rain = 0
KCA1 190751Z 31005KT 04/00 A2995 RMK A01 T004200-0  RH  074%=      5-min Rain = 0
KCA1 190752Z 31005KT 04/00 A2995 RMK A01 T00410000  RH  075%=      5-min Rain = 0
KCA1 190753Z 31005KT 04/00 A2995 RMK A01 T00400001  RH  076%=      5-min Rain = 0
KCA1 190754Z 31005KT 04/00 A2995 RMK A01 T00390001  RH  076%=      5-min Rain = 0
KCA1 190755Z 30005KT 04/00 A2994 RMK A01 T00390001  RH  076%=      5-min Rain = 0
KCA1 190756Z 30005KT 04/00 A2994 RMK A01 T00390003  RH  077%=      5-min Rain = 0
KCA1 190757Z 30005KT 04/01 A2994 RMK A01 T00420005  RH  077%=      5-min Rain = 0
KCA1 190758Z 30005KT 05/01 A2994 RMK A01 T00450006  RH  076%=      5-min Rain = 0
KCA1 190759Z 31005KT 05/01 A2994 RMK A01 T00460005  RH  075%=      5-min Rain = 0
KCA1 190800Z 31006KT 05/00 A2994 RMK A01 T00450004  RH  074%=      5-min Rain = 0
KCA1 190801Z 31005KT 04/00 A2994 RMK A01 T00440002  RH  074%=      5-min Rain = 0
KCA1 190802Z 31006KT 04/00 A2994 RMK A01 T00430002  RH  075%=      5-min Rain = 0
KCA1 190803Z 31005KT 04/00 A2994 RMK A01 T00420002  RH  076%=      5-min Rain = 0
KCA1 190804Z 31005KT 04/00 A2994 RMK A01 T00410002  RH  076%=      5-min Rain = 0
KCA1 190805Z 31005KT 04/00 A2994 RMK A01 T00410003  RH  076%=      5-min Rain = 0
KCA1 190806Z 30005KT 04/00 A2994 RMK A01 T00410003  RH  076%=      5-min Rain = 0
KCA1 190807Z 30005KT 04/00 A2994 RMK A01 T00410003  RH  076%=      5-min Rain = 0
KCA1 190808Z 30005KT 04/00 A2994 RMK A01 T00410003  RH  076%=      5-min Rain = 0
KCA1 190809Z 30005KT 04/00 A2994 RMK A01 T00410003  RH  076%=      5-min Rain = 0
KCA1 190810Z 31005KT 04/00 A2994 RMK A01 T00400002  RH  076%=      5-min Rain = 0
KCA1 190811Z 31005KT 04/00 A2994 RMK A01 T00390002  RH  077%=      5-min Rain = 0
KCA1 190812Z 31005KT 04/00 A2994 RMK A01 T00380002  RH  077%=      5-min Rain = 0
KCA1 190813Z 31005KT 04/00 A2995 RMK A01 T00380001  RH  077%=      5-min Rain = 0
KCA1 190814Z 30005KT 04/00 A2995 RMK A01 T00370001  RH  077%=      5-min Rain = 0
KCA1 190815Z 30005KT 04/00 A2995 RMK A01 T00370001  RH  078%=      5-min Rain = 0
KCA1 190816Z 29005KT 04/00 A2995 RMK A01 T00370002  RH  078%=      5-min Rain = 0
KCA1 190817Z 29005KT 04/00 A2995 RMK A01 T00370002  RH  078%=      5-min Rain = 0
KCA1 190818Z 29005KT 04/00 A2995 RMK A01 T00390003  RH  078%=      5-min Rain = 0
KCA1 190819Z 29005KT 04/00 A2995 RMK A01 T00390002  RH  077%=      5-min Rain = 0
KCA1 190820Z 29005KT 04/00 A2995 RMK A01 T00390002  RH  077%=      5-min Rain = 0
KCA1 190821Z 28005KT 04/00 A2995 RMK A01 T00390003  RH  077%=      5-min Rain = 0
KCA1 190822Z 28006KT 04/00 A2995 RMK A01 T00400003  RH  077%=      5-min Rain = 0
KCA1 190823Z 28006KT 04/00 A2995 RMK A01 T00400004  RH  077%=      5-min Rain = 0
KCA1 190824Z 28007KT 04/01 A2995 RMK A01 T00430005  RH  077%=      5-min Rain = 0
KCA1 190825Z 27007KT 04/01 A2995 RMK A01 T00430005  RH  076%=      5-min Rain = 0
KCA1 190826Z 28007KT 04/00 A2995 RMK A01 T00430004  RH  076%=      5-min Rain = 0
KCA1 190827Z 28007KT 04/00 A2995 RMK A01 T00410002  RH  076%=      5-min Rain = 0
KCA1 190828Z 28007KT 04/00 A2995 RMK A01 T00400002  RH  076%=      5-min Rain = 0
KCA1 190829Z 28007KT 04/00 A2995 RMK A01 T00390001  RH  076%=      5-min Rain = 0
KCA1 190830Z 29007KT 04/00 A2995 RMK A01 T00380001  RH  077%=      5-min Rain = 0
KCA1 190831Z 29007KT 04/00 A2995 RMK A01 T00370000  RH  077%=      5-min Rain = 0
KCA1 190832Z 30007KT 04/00 A2995 RMK A01 T003500-0  RH  078%=      5-min Rain = 0
KCA1 190833Z 29007KT 03/00 A2996 RMK A01 T003400-0  RH  078%=      5-min Rain = 0
KCA1 190834Z 29007KT 03/00 A2996 RMK A01 T00340001  RH  079%=      5-min Rain = 0
KCA1 190835Z 30007KT 03/00 A2996 RMK A01 T00340001  RH  079%=      5-min Rain = 0
KCA1 190836Z 30007KT 03/00 A2996 RMK A01 T003400-0  RH  079%=      5-min Rain = 0
KCA1 190837Z 29008KT 03/00 A2996 RMK A01 T003300-0  RH  079%=      5-min Rain = 0
KCA1 190838Z 29008KT 03/00 A2996 RMK A01 T00330001  RH  079%=      5-min Rain = 0
KCA1 190839Z 30007KT 04/00 A2996 RMK A01 T00350002  RH  079%=      5-min Rain = 0
KCA1 190840Z 30008KT 04/00 A2996 RMK A01 T00350001  RH  078%=      5-min Rain = 0
KCA1 190841Z 30008KT 04/00 A2996 RMK A01 T00360003  RH  079%=      5-min Rain = 0
KCA1 190842Z 30009KT 04/00 A2996 RMK A01 T00390003  RH  078%=      5-min Rain = 0
KCA1 190843Z 30009KT 04/00 A2996 RMK A01 T00400004  RH  077%=      5-min Rain = 0
KCA1 190844Z 30009KT 04/01 A2996 RMK A01 T00420005  RH  076%=      5-min Rain = 0
KCA1 190845Z 30008KT 04/00 A2996 RMK A01 T00430004  RH  076%=      5-min Rain = 0
KCA1 190846Z 31008KT 04/00 A2996 RMK A01 T00430003  RH  075%=      5-min Rain = 0
KCA1 190847Z 30008KT 04/00 A2996 RMK A01 T00430003  RH  075%=      5-min Rain = 0
KCA1 190848Z 30008KT 04/00 A2996 RMK A01 T00430003  RH  075%=      5-min Rain = 0
KCA1 190849Z 31007KT 04/00 A2996 RMK A01 T00430003  RH  075%=      5-min Rain = 0
KCA1 190850Z 31007KT 04/00 A2996 RMK A01 T00420003  RH  076%=      5-min Rain = 0
KCA1 190851Z 31007KT 04/00 A2996 RMK A01 T00420003  RH  076%=      5-min Rain = 0
KCA1 190852Z 31007KT 04/00 A2996 RMK A01 T00410003  RH  076%=      5-min Rain = 0
KCA1 190853Z 31007KT 04/00 A2996 RMK A01 T00410003  RH  076%=      5-min Rain = 0
KCA1 190854Z 30008KT 04/00 A2996 RMK A01 T00410003  RH  076%=      5-min Rain = 0
KCA1 190855Z 30008KT 04/00 A2996 RMK A01 T00410003  RH  076%=      5-min Rain = 0
KCA1 190856Z 30007KT 04/00 A2996 RMK A01 T00410004  RH  076%=      5-min Rain = 0
KCA1 190857Z 30008KT 04/00 A2996 RMK A01 T00420004  RH  076%=      5-min Rain = 0
KCA1 190858Z 30007KT 04/01 A2996 RMK A01 T00440005  RH  076%=      5-min Rain = 0
KCA1 190859Z 31006KT 04/01 A2996 RMK A01 T00440005  RH  075%=      5-min Rain = 0
KCA1 190900Z 31007KT 04/00 A2996 RMK A01 T00440004  RH  075%=      5-min Rain = 0
KCA1 190901Z 31007KT 04/00 A2996 RMK A01 T00430004  RH  075%=      5-min Rain = 0
KCA1 190902Z 30008KT 04/00 A2996 RMK A01 T00430004  RH  076%=      5-min Rain = 0
KCA1 190903Z 30007KT 04/00 A2996 RMK A01 T00430004  RH  076%=      5-min Rain = 0
KCA1 190904Z 30007KT 04/00 A2996 RMK A01 T00430004  RH  076%=      5-min Rain = 0
KCA1 190905Z 30008KT 04/01 A2996 RMK A01 T00440005  RH  076%=      5-min Rain = 0
KCA1 190906Z 30007KT 04/01 A2996 RMK A01 T00440005  RH  076%=      5-min Rain = 0
KCA1 190907Z 30007KT 05/01 A2996 RMK A01 T00450005  RH  075%=      5-min Rain = 0
KCA1 190908Z 30007KT 05/01 A2996 RMK A01 T00450005  RH  075%=      5-min Rain = 0
KCA1 190909Z 31006KT 05/01 A2996 RMK A01 T00450005  RH  075%=      5-min Rain = 0
KCA1 190910Z 30006KT 05/01 A2996 RMK A01 T00450005  RH  075%=      5-min Rain = 0
KCA1 190911Z 30007KT 05/01 A2996 RMK A01 T00450005  RH  075%=      5-min Rain = 0
KCA1 190912Z 30007KT 05/01 A2996 RMK A01 T00450005  RH  075%=      5-min Rain = 0
KCA1 190913Z 30006KT 05/01 A2996 RMK A01 T00450005  RH  075%=      5-min Rain = 0
KCA1 190914Z 30008KT 05/01 A2997 RMK A01 T00450005  RH  075%=      5-min Rain = 0
KCA1 190915Z 30007KT 05/01 A2996 RMK A01 T00450005  RH  075%=      5-min Rain = 0
KCA1 190916Z 30008KT 05/01 A2996 RMK A01 T00460005  RH  075%=      5-min Rain = 0
KCA1 190917Z 30007KT 05/01 A2996 RMK A01 T00470006  RH  075%=      5-min Rain = 0
KCA1 190918Z 30007KT 05/01 A2996 RMK A01 T00470006  RH  074%=      5-min Rain = 0
KCA1 190919Z 30007KT 05/01 A2996 RMK A01 T00480006  RH  074%=      5-min Rain = 0
KCA1 190920Z 30007KT 05/01 A2996 RMK A01 T00470005  RH  074%=      5-min Rain = 0
KCA1 190921Z 30007KT 05/01 A2996 RMK A01 T00470005  RH  074%=      5-min Rain = 0
KCA1 190922Z 30007KT 05/01 A2996 RMK A01 T00460005  RH  074%=      5-min Rain = 0
KCA1 190923Z 30007KT 05/01 A2996 RMK A01 T00470005  RH  074%=      5-min Rain = 0
KCA1 190924Z 30007KT 05/01 A2996 RMK A01 T00460005  RH  075%=      5-min Rain = 0
KCA1 190925Z 30007KT 05/01 A2996 RMK A01 T00460005  RH  074%=      5-min Rain = 0
KCA1 190926Z 30007KT 05/01 A2996 RMK A01 T00470005  RH  074%=      5-min Rain = 0
KCA1 190927Z 30007KT 05/01 A2996 RMK A01 T00470005  RH  074%=      5-min Rain = 0
KCA1 190928Z 30006KT 05/01 A2996 RMK A01 T00470005  RH  074%=      5-min Rain = 0
KCA1 190929Z 30007KT 05/01 A2996 RMK A01 T00470005  RH  074%=      5-min Rain = 0
KCA1 190930Z 30007KT 05/01 A2996 RMK A01 T00470005  RH  074%=      5-min Rain = 0
KCA1 190931Z 30007KT 05/01 A2996 RMK A01 T00460005  RH  074%=      5-min Rain = 0
KCA1 190932Z 30006KT 05/01 A2996 RMK A01 T00460005  RH  074%=      5-min Rain = 0
KCA1 190933Z 30006KT 05/01 A2996 RMK A01 T00470005  RH  074%=      5-min Rain = 0
KCA1 190934Z 30006KT 05/01 A2996 RMK A01 T00470005  RH  074%=      5-min Rain = 0
KCA1 190935Z 31007KT 05/00 A2996 RMK A01 T00450004  RH  074%=      5-min Rain = 0
KCA1 190936Z 31006KT 05/00 A2996 RMK A01 T00450004  RH  075%=      5-min Rain = 0
KCA1 190937Z 31006KT 04/00 A2996 RMK A01 T00430003  RH  075%=      5-min Rain = 0
KCA1 190938Z 31006KT 04/00 A2996 RMK A01 T00420003  RH  076%=      5-min Rain = 0
KCA1 190939Z 30007KT 04/00 A2996 RMK A01 T00420004  RH  076%=      5-min Rain = 0
KCA1 190940Z 30007KT 04/00 A2996 RMK A01 T00420003  RH  076%=      5-min Rain = 0
KCA1 190941Z 30007KT 04/00 A2996 RMK A01 T00420004  RH  076%=      5-min Rain = 0
KCA1 190942Z 30007KT 04/00 A2996 RMK A01 T00420004  RH  076%=      5-min Rain = 0
KCA1 190943Z 30007KT 04/00 A2996 RMK A01 T00420004  RH  076%=      5-min Rain = 0
KCA1 190944Z 30007KT 04/00 A2995 RMK A01 T00420004  RH  076%=      5-min Rain = 0
KCA1 190945Z 30007KT 04/00 A2995 RMK A01 T00420004  RH  076%=      5-min Rain = 0
KCA1 190946Z 30007KT 04/00 A2995 RMK A01 T00430004  RH  076%=      5-min Rain = 0
KCA1 190947Z 30007KT 04/00 A2995 RMK A01 T00430004  RH  076%=      5-min Rain = 0
KCA1 190948Z 30007KT 04/00 A2995 RMK A01 T00430004  RH  076%=      5-min Rain = 0
KCA1 190949Z 30007KT 04/00 A2995 RMK A01 T00430004  RH  076%=      5-min Rain = 0
KCA1 190950Z 30007KT 04/00 A2995 RMK A01 T00430004  RH  076%=      5-min Rain = 0
KCA1 190951Z 29008KT 04/00 A2995 RMK A01 T00430004  RH  076%=      5-min Rain = 0
KCA1 190952Z 30007KT 04/01 A2995 RMK A01 T00440005  RH  075%=      5-min Rain = 0
KCA1 190953Z 30007KT 05/01 A2995 RMK A01 T00450005  RH  075%=      5-min Rain = 0
KCA1 190954Z 30007KT 05/01 A2995 RMK A01 T00460005  RH  075%=      5-min Rain = 0
KCA1 190955Z 31007KT 05/00 A2995 RMK A01 T00460004  RH  074%=      5-min Rain = 0
KCA1 190956Z 31007KT 05/00 A2995 RMK A01 T00450003  RH  075%=      5-min Rain = 0
KCA1 190957Z 30008KT 04/00 A2995 RMK A01 T00440003  RH  075%=      5-min Rain = 0
KCA1 190958Z 31008KT 04/00 A2995 RMK A01 T00440004  RH  075%=      5-min Rain = 0
KCA1 190959Z 31008KT 05/01 A2994 RMK A01 T00450005  RH  075%=      5-min Rain = 0
KCA1 191000Z 31007KT 05/01 A2994 RMK A01 T00460005  RH  075%=      5-min Rain = 0
KCA1 191001Z 31007KT 05/00 A2994 RMK A01 T00460004  RH  074%=      5-min Rain = 0
KCA1 191002Z 31007KT 05/00 A2994 RMK A01 T00460004  RH  075%=      5-min Rain = 0
KCA1 191003Z 31007KT 05/01 A2994 RMK A01 T00460005  RH  075%=      5-min Rain = 0
KCA1 191004Z 31007KT 05/00 A2994 RMK A01 T00450004  RH  075%=      5-min Rain = 0
KCA1 191005Z 31007KT 05/00 A2994 RMK A01 T00450004  RH  075%=      5-min Rain = 0
KCA1 191006Z 31007KT 05/00 A2994 RMK A01 T00450004  RH  075%=      5-min Rain = 0
KCA1 191007Z 31006KT 05/00 A2994 RMK A01 T00450004  RH  075%=      5-min Rain = 0
KCA1 191008Z 31006KT 05/01 A2994 RMK A01 T00450005  RH  075%=      5-min Rain = 0
KCA1 191009Z 31006KT 04/00 A2994 RMK A01 T00440004  RH  075%=      5-min Rain = 0
KCA1 191010Z 31005KT 04/01 A2994 RMK A01 T00440005  RH  076%=      5-min Rain = 0
KCA1 191011Z 31005KT 05/01 A2994 RMK A01 T00450005  RH  076%=      5-min Rain = 0
KCA1 191012Z 31005KT 05/01 A2994 RMK A01 T00460006  RH  075%=      5-min Rain = 0
KCA1 191013Z 30004KT 05/01 A2994 RMK A01 T00460006  RH  075%=      5-min Rain = 0
KCA1 191014Z 30004KT 05/01 A2994 RMK A01 T00470006  RH  075%=      5-min Rain = 0
KCA1 191015Z 30004KT 05/01 A2994 RMK A01 T00470006  RH  075%=      5-min Rain = 0
KCA1 191016Z 30004KT 05/01 A2994 RMK A01 T00470006  RH  075%=      5-min Rain = 0
KCA1 191017Z 30004KT 05/01 A2994 RMK A01 T00460006  RH  075%=      5-min Rain = 0
KCA1 191018Z 30004KT 05/01 A2994 RMK A01 T00460005  RH  075%=      5-min Rain = 0
KCA1 191019Z 30004KT 05/01 A2994 RMK A01 T00450005  RH  075%=      5-min Rain = 0
KCA1 191020Z 30004KT 05/01 A2994 RMK A01 T00450005  RH  075%=      5-min Rain = 0
KCA1 191021Z 29004KT 05/01 A2994 RMK A01 T00450005  RH  075%=      5-min Rain = 0
KCA1 191022Z 29004KT 05/01 A2994 RMK A01 T00450006  RH  076%=      5-min Rain = 0
KCA1 191023Z 29004KT 05/01 A2994 RMK A01 T00460006  RH  076%=      5-min Rain = 0
KCA1 191024Z 29004KT 05/01 A2994 RMK A01 T00470007  RH  076%=      5-min Rain = 0
KCA1 191025Z 28003KT 05/01 A2994 RMK A01 T00490008  RH  075%=      5-min Rain = 0
KCA1 191026Z 28003KT 05/01 A2994 RMK A01 T00500008  RH  074%=      5-min Rain = 0
KCA1 191027Z 28003KT 05/01 A2994 RMK A01 T00510008  RH  074%=      5-min Rain = 0
KCA1 191028Z 27003KT 05/01 A2994 RMK A01 T00510007  RH  073%=      5-min Rain = 0
KCA1 191029Z 27002KT 05/00 A2994 RMK A01 T00500004  RH  072%=      5-min Rain = 0
KCA1 191030Z 27002KT 05/00 A2994 RMK A01 T00450000  RH  073%=      5-min Rain = 0
KCA1 191031Z 26002KT 04/M00 A2994 RMK A01 T00401002  RH  074%=      5-min Rain = 0
KCA1 191032Z 26003KT 04/M00 A2994 RMK A01 T00361004  RH  075%=      5-min Rain = 0
KCA1 191033Z 26003KT 03/M01 A2994 RMK A01 T00311005  RH  077%=      5-min Rain = 0
KCA1 191034Z 26002KT 03/M01 A2994 RMK A01 T00291005  RH  079%=      5-min Rain = 0
KCA1 191035Z 28002KT 03/M01 A2994 RMK A01 T00271005  RH  080%=      5-min Rain = 0
KCA1 191036Z 28002KT 03/M00 A2994 RMK A01 T00261004  RH  081%=      5-min Rain = 0
KCA1 191037Z 29002KT 02/M00 A2994 RMK A01 T00241004  RH  082%=      5-min Rain = 0
KCA1 191038Z 29002KT 02/M00 A2994 RMK A01 T00241003  RH  082%=      5-min Rain = 0
KCA1 191039Z 29002KT 02/M00 A2994 RMK A01 T00241003  RH  083%=      5-min Rain = 0
KCA1 191040Z 29003KT 02/M00 A2994 RMK A01 T00241003  RH  083%=      5-min Rain = 0
KCA1 191041Z 29003KT 02/M00 A2994 RMK A01 T00221004  RH  083%=      5-min Rain = 0
KCA1 191042Z 28003KT 02/M00 A2994 RMK A01 T00221004  RH  083%=      5-min Rain = 0
KCA1 191043Z 28002KT 02/M00 A2994 RMK A01 T00211003  RH  084%=      5-min Rain = 0
KCA1 191044Z 27002KT 02/M00 A2994 RMK A01 T00211003  RH  084%=      5-min Rain = 0
KCA1 191045Z 26002KT 02/M00 A2994 RMK A01 T00221002  RH  084%=      5-min Rain = 0
KCA1 191046Z 26002KT 02/M00 A2994 RMK A01 T00221002  RH  084%=      5-min Rain = 0
KCA1 191047Z 27003KT 02/M00 A2994 RMK A01 T00221002  RH  084%=      5-min Rain = 0
KCA1 191048Z 27003KT 02/M00 A2994 RMK A01 T00221002  RH  084%=      5-min Rain = 0
KCA1 191049Z 27003KT 02/M00 A2994 RMK A01 T00221002  RH  084%=      5-min Rain = 0
KCA1 191050Z 28003KT 02/M00 A2994 RMK A01 T00231001  RH  084%=      5-min Rain = 0
KCA1 191051Z 28004KT 02/M00 A2994 RMK A01 T00231002  RH  084%=      5-min Rain = 0
KCA1 191052Z 29003KT 02/M00 A2994 RMK A01 T00231002  RH  084%=      5-min Rain = 0
KCA1 191053Z 29003KT 02/M00 A2994 RMK A01 T00221003  RH  084%=      5-min Rain = 0
KCA1 191054Z 29003KT 02/M00 A2994 RMK A01 T00211003  RH  084%=      5-min Rain = 0
KCA1 191055Z 29004KT 02/M00 A2994 RMK A01 T00201004  RH  084%=      5-min Rain = 0
KCA1 191056Z 29004KT 02/M00 A2994 RMK A01 T00201004  RH  084%=      5-min Rain = 0
KCA1 191057Z 29004KT 02/M00 A2994 RMK A01 T00201003  RH  085%=      5-min Rain = 0
KCA1 191058Z 29004KT 02/M00 A2994 RMK A01 T00201003  RH  085%=      5-min Rain = 0
KCA1 191059Z 29005KT 02/M00 A2994 RMK A01 T00201003  RH  085%=      5-min Rain = 0
KCA1 191100Z 30005KT 02/M00 A2994 RMK A01 T00201003  RH  085%=      5-min Rain = 0
KCA1 191101Z 30005KT 02/M00 A2994 RMK A01 T00201003  RH  085%=      5-min Rain = 0
KCA1 191102Z 30004KT 02/M00 A2994 RMK A01 T00191004  RH  085%=      5-min Rain = 0
KCA1 191103Z 31005KT 02/M00 A2994 RMK A01 T00181004  RH  085%=      5-min Rain = 0
KCA1 191104Z 30005KT 02/M01 A2994 RMK A01 T00181005  RH  085%=      5-min Rain = 0
KCA1 191105Z 31005KT 02/M01 A2994 RMK A01 T00171005  RH  085%=      5-min Rain = 0
KCA1 191106Z 31005KT 02/M01 A2994 RMK A01 T00171005  RH  085%=      5-min Rain = 0
KCA1 191107Z 31005KT 02/M01 A2994 RMK A01 T00161005  RH  086%=      5-min Rain = 0
KCA1 191108Z 31005KT 02/M01 A2994 RMK A01 T00161005  RH  086%=      5-min Rain = 0
KCA1 191109Z 31005KT 02/M01 A2994 RMK A01 T00161005  RH  086%=      5-min Rain = 0
KCA1 191110Z 31005KT 02/M00 A2994 RMK A01 T00161004  RH  087%=      5-min Rain = 0
KCA1 191111Z 30005KT 02/M00 A2994 RMK A01 T00161003  RH  087%=      5-min Rain = 0
KCA1 191112Z 29007KT 02/M00 A2994 RMK A01 T00171002  RH  087%=      5-min Rain = 0
KCA1 191113Z 29008KT 02/M00 A2994 RMK A01 T00181001  RH  087%=      5-min Rain = 0
KCA1 191114Z 28009KT 02/M00 A2994 RMK A01 T00191001  RH  087%=      5-min Rain = 0
KCA1 191115Z 28009KT 02/M00 A2994 RMK A01 T00191001  RH  087%=      5-min Rain = 0
KCA1 191116Z 29009KT 02/M00 A2994 RMK A01 T00191001  RH  086%=      5-min Rain = 0
KCA1 191117Z 29009KT 02/M00 A2994 RMK A01 T00181002  RH  086%=      5-min Rain = 0
KCA1 191118Z 29009KT 02/M00 A2994 RMK A01 T00181002  RH  086%=      5-min Rain = 0
KCA1 191119Z 29009KT 02/M00 A2994 RMK A01 T00171003  RH  086%=      5-min Rain = 0
KCA1 191120Z 29009KT 02/M00 A2994 RMK A01 T00171003  RH  087%=      5-min Rain = 0
KCA1 191121Z 29008KT 02/M00 A2994 RMK A01 T00161003  RH  087%=      5-min Rain = 0
KCA1 191122Z 29008KT 02/M00 A2994 RMK A01 T00161003  RH  087%=      5-min Rain = 0
KCA1 191123Z 29009KT 02/M00 A2994 RMK A01 T00161003  RH  087%=      5-min Rain = 0
KCA1 191124Z 29008KT 02/M00 A2994 RMK A01 T00161003  RH  087%=      5-min Rain = 0
KCA1 191125Z 29008KT 02/M00 A2994 RMK A01 T00161003  RH  087%=      5-min Rain = 0
KCA1 191126Z 30007KT 02/M00 A2994 RMK A01 T00161003  RH  087%=      5-min Rain = 0
KCA1 191127Z 30007KT 02/M00 A2994 RMK A01 T00161002  RH  087%=      5-min Rain = 0
KCA1 191128Z 30007KT 02/M00 A2994 RMK A01 T00161003  RH  087%=      5-min Rain = 0
KCA1 191129Z 30007KT 02/M00 A2994 RMK A01 T00161003  RH  087%=      5-min Rain = 0
KCA1 191130Z 30006KT 02/M00 A2994 RMK A01 T00171002  RH  087%=      5-min Rain = 0
KCA1 191131Z 31006KT 02/M00 A2994 RMK A01 T00161003  RH  087%=      5-min Rain = 0
KCA1 191132Z 31006KT 02/M00 A2994 RMK A01 T00161003  RH  087%=      5-min Rain = 0
KCA1 191133Z 31005KT 02/M00 A2994 RMK A01 T00161003  RH  087%=      5-min Rain = 0
KCA1 191134Z 31006KT 02/M00 A2994 RMK A01 T00161003  RH  087%=      5-min Rain = 0
KCA1 191135Z 31006KT 02/M00 A2994 RMK A01 T00151003  RH  088%=      5-min Rain = 0
KCA1 191136Z 31006KT 02/M00 A2994 RMK A01 T00151003  RH  088%=      5-min Rain = 0
KCA1 191137Z 31006KT 02/M00 A2994 RMK A01 T00161003  RH  088%=      5-min Rain = 0
KCA1 191138Z 31006KT 02/M00 A2994 RMK A01 T00151004  RH  088%=      5-min Rain = 0
KCA1 191139Z 31006KT 02/M00 A2994 RMK A01 T00151004  RH  088%=      5-min Rain = 0
KCA1 191140Z 32006KT 02/M00 A2994 RMK A01 T00151004  RH  087%=      5-min Rain = 0
KCA1 191141Z 32006KT 01/M00 A2994 RMK A01 T00141004  RH  087%=      5-min Rain = 0
KCA1 191142Z 32006KT 01/M00 A2994 RMK A01 T00141004  RH  087%=      5-min Rain = 0
KCA1 191143Z 32006KT 01/M00 A2994 RMK A01 T00141004  RH  088%=      5-min Rain = 0
KCA1 191144Z 32006KT 02/M00 A2994 RMK A01 T00151004  RH  088%=      5-min Rain = 0
KCA1 191145Z 32006KT 02/M00 A2994 RMK A01 T00161002  RH  088%=      5-min Rain = 0
KCA1 191146Z 32006KT 02/M00 A2994 RMK A01 T00171002  RH  088%=      5-min Rain = 0
KCA1 191147Z 32006KT 02/M00 A2994 RMK A01 T00181001  RH  087%=      5-min Rain = 0
KCA1 191148Z 33006KT 02/M00 A2994 RMK A01 T00181002  RH  087%=      5-min Rain = 0
KCA1 191149Z 33005KT 02/M00 A2994 RMK A01 T00191001  RH  087%=      5-min Rain = 0
KCA1 191150Z 33005KT 02/00 A2994 RMK A01 T002100-0  RH  086%=      5-min Rain = 0
KCA1 191151Z 32005KT 02/00 A2994 RMK A01 T002100-0  RH  086%=      5-min Rain = 0
KCA1 191152Z 32005KT 02/00 A2994 RMK A01 T00220000  RH  085%=      5-min Rain = 0
KCA1 191153Z 31005KT 02/00 A2994 RMK A01 T00230001  RH  085%=      5-min Rain = 0
KCA1 191154Z 31005KT 02/00 A2994 RMK A01 T00240001  RH  085%=      5-min Rain = 0
KCA1 191155Z 31005KT 03/00 A2994 RMK A01 T00260002  RH  084%=      5-min Rain = 0
KCA1 191156Z 31004KT 03/00 A2994 RMK A01 T00280003  RH  084%=      5-min Rain = 0
KCA1 191157Z 31004KT 03/00 A2994 RMK A01 T00290004  RH  083%=      5-min Rain = 0
KCA1 191158Z 32004KT 03/01 A2994 RMK A01 T00310005  RH  083%=      5-min Rain = 0
KCA1 191159Z 32004KT 03/01 A2993 RMK A01 T00330006  RH  082%=      5-min Rain = 0
KCA1 191200Z 32004KT 04/01 A2993 RMK A01 T00350006  RH  081%=      5-min Rain = 0
KCA1 191201Z 33003KT 04/01 A2993 RMK A01 T00360005  RH  080%=      5-min Rain = 0
KCA1 191202Z 34003KT 04/00 A2993 RMK A01 T00350004  RH  080%=      5-min Rain = 0
KCA1 191203Z 34003KT 04/00 A2993 RMK A01 T00350004  RH  080%=      5-min Rain = 0
KCA1 191204Z 34003KT 04/00 A2993 RMK A01 T00350004  RH  080%=      5-min Rain = 0
KCA1 191205Z 34003KT 04/01 A2993 RMK A01 T00350005  RH  081%=      5-min Rain = 0
KCA1 191206Z 35002KT 04/01 A2993 RMK A01 T00350005  RH  081%=      5-min Rain = 0
KCA1 191207Z 36002KT 04/00 A2993 RMK A01 T00350004  RH  080%=      5-min Rain = 0
KCA1 191208Z 00002KT 03/00 A2993 RMK A01 T00330001  RH  079%=      5-min Rain = 0
KCA1 191209Z 02002KT 03/M00 A2993 RMK A01 T00301001  RH  080%=      5-min Rain = 0
KCA1 191210Z 01003KT 03/M00 A2993 RMK A01 T00271003  RH  081%=      5-min Rain = 0
KCA1 191211Z 01002KT 03/M00 A2993 RMK A01 T00251002  RH  082%=      5-min Rain = 0
KCA1 191212Z 01002KT 02/M00 A2993 RMK A01 T00241002  RH  083%=      5-min Rain = 0
KCA1 191213Z 36002KT 02/M00 A2993 RMK A01 T00241002  RH  083%=      5-min Rain = 0
KCA1 191214Z 33001KT 02/M00 A2993 RMK A01 T00231001  RH  084%=      5-min Rain = 0
KCA1 191215Z 30001KT 02/M00 A2993 RMK A01 T00231001  RH  084%=      5-min Rain = 0
KCA1 191216Z 28001KT 02/M00 A2993 RMK A01 T00231001  RH  084%=      5-min Rain = 0
KCA1 191217Z 28001KT 02/00 A2993 RMK A01 T002400-0  RH  084%=      5-min Rain = 0
KCA1 191218Z 27000KT 02/M00 A2993 RMK A01 T00241001  RH  084%=      5-min Rain = 0
KCA1 191219Z 01000KT 02/M00 A2993 RMK A01 T00241001  RH  084%=      5-min Rain = 0
KCA1 191220Z 35000KT 02/M00 A2993 RMK A01 T00231001  RH  084%=      5-min Rain = 0
KCA1 191221Z 01001KT 02/00 A2993 RMK A01 T002300-0  RH  085%=      5-min Rain = 0
KCA1 191222Z 03000KT 02/00 A2993 RMK A01 T002400-0  RH  084%=      5-min Rain = 0
KCA1 191223Z 04000KT 02/00 A2993 RMK A01 T00240000  RH  084%=      5-min Rain = 0
KCA1 191224Z 15000KT 02/00 A2993 RMK A01 T002400-0  RH  084%=      5-min Rain = 0
KCA1 191225Z 16001KT 02/M00 A2993 RMK A01 T00231002  RH  083%=      5-min Rain = 0
KCA1 191226Z 17002KT 02/M01 A2993 RMK A01 T00191006  RH  083%=      5-min Rain = 0
KCA1 191227Z 18002KT 02/M01 A2993 RMK A01 T00171005  RH  085%=      5-min Rain = 0
KCA1 191228Z 18001KT 02/M01 A2993 RMK A01 T00151005  RH  086%=      5-min Rain = 0
KCA1 191229Z 00000KT 01/M01 A2993 RMK A01 T00141005  RH  087%=      5-min Rain = 0
KCA1 191230Z 08001KT 01/M01 A2993 RMK A01 T00141005  RH  087%=      5-min Rain = 0
KCA1 191231Z 07001KT 01/M01 A2993 RMK A01 T00131005  RH  088%=      5-min Rain = 0
KCA1 191232Z 03001KT 01/M00 A2993 RMK A01 T00131004  RH  089%=      5-min Rain = 0
KCA1 191233Z 02000KT 01/M00 A2993 RMK A01 T00121004  RH  089%=      5-min Rain = 0
KCA1 191234Z 00000KT 01/M00 A2993 RMK A01 T00121003  RH  090%=      5-min Rain = 0
KCA1 191235Z 02000KT 01/M00 A2993 RMK A01 T00121003  RH  090%=      5-min Rain = 0
KCA1 191236Z 02000KT 01/M00 A2993 RMK A01 T00131001  RH  090%=      5-min Rain = 0
KCA1 191237Z 02000KT 02/00 A2993 RMK A01 T00150000  RH  090%=      5-min Rain = 0
KCA1 191238Z 02001KT 02/00 A2993 RMK A01 T00170001  RH  090%=      5-min Rain = 0
KCA1 191239Z 02000KT 02/00 A2993 RMK A01 T00180001  RH  089%=      5-min Rain = 0
KCA1 191240Z 06001KT 02/00 A2993 RMK A01 T00190001  RH  088%=      5-min Rain = 0
KCA1 191241Z 05002KT 02/00 A2993 RMK A01 T00200000  RH  087%=      5-min Rain = 0
KCA1 191242Z 05001KT 02/00 A2993 RMK A01 T00210001  RH  087%=      5-min Rain = 0
KCA1 191243Z 07002KT 02/00 A2993 RMK A01 T00210000  RH  086%=      5-min Rain = 0
KCA1 191244Z 07002KT 02/M00 A2993 RMK A01 T00211001  RH  085%=      5-min Rain = 0
KCA1 191245Z 07002KT 02/M00 A2993 RMK A01 T00221001  RH  085%=      5-min Rain = 0
KCA1 191246Z 07002KT 02/M00 A2992 RMK A01 T00201003  RH  085%=      5-min Rain = 0
KCA1 191247Z 06003KT 02/M00 A2992 RMK A01 T00191004  RH  085%=      5-min Rain = 0
KCA1 191248Z 06003KT 02/M01 A2992 RMK A01 T00171005  RH  085%=      5-min Rain = 0
KCA1 191249Z 06002KT 02/M01 A2992 RMK A01 T00161005  RH  086%=      5-min Rain = 0
KCA1 191250Z 07002KT 02/M00 A2992 RMK A01 T00161004  RH  086%=      5-min Rain = 0
KCA1 191251Z 07003KT 02/M00 A2992 RMK A01 T00161004  RH  086%=      5-min Rain = 0
KCA1 191252Z 07003KT 02/M00 A2992 RMK A01 T00161004  RH  086%=      5-min Rain = 0
KCA1 191253Z 07003KT 02/M00 A2992 RMK A01 T00161004  RH  086%=      5-min Rain = 0
KCA1 191254Z 08003KT 02/M00 A2992 RMK A01 T00161004  RH  086%=      5-min Rain = 0
KCA1 191255Z 07003KT 02/M01 A2992 RMK A01 T00161005  RH  086%=      5-min Rain = 0
KCA1 191256Z 07004KT 02/M01 A2992 RMK A01 T00151005  RH  086%=      5-min Rain = 0
KCA1 191257Z 06005KT 02/M01 A2992 RMK A01 T00151005  RH  087%=      5-min Rain = 0
KCA1 191258Z 07005KT 02/M00 A2992 RMK A01 T00151004  RH  087%=      5-min Rain = 0
KCA1 191259Z 07005KT 02/M00 A2992 RMK A01 T00151004  RH  087%=      5-min Rain = 0
KCA1 191300Z 07005KT 02/M00 A2992 RMK A01 T00161003  RH  087%=      5-min Rain = 0
KCA1 191301Z 06005KT 02/M00 A2992 RMK A01 T00181002  RH  087%=      5-min Rain = 0
KCA1 191302Z 06006KT 02/M00 A2992 RMK A01 T00181002  RH  086%=      5-min Rain = 0
KCA1 191303Z 06006KT 02/M00 A2992 RMK A01 T00191001  RH  086%=      5-min Rain = 0
KCA1 191304Z 07006KT 02/M00 A2992 RMK A01 T00191002  RH  086%=      5-min Rain = 0
KCA1 191305Z 07005KT 02/M00 A2992 RMK A01 T00191002  RH  086%=      5-min Rain = 0
KCA1 191306Z 07006KT 02/M00 A2992 RMK A01 T00201002  RH  086%=      5-min Rain = 0
KCA1 191307Z 07006KT 02/M00 A2992 RMK A01 T00201001  RH  086%=      5-min Rain = 0
KCA1 191308Z 07006KT 02/M00 A2992 RMK A01 T00211001  RH  086%=      5-min Rain = 0
KCA1 191309Z 07005KT 02/00 A2992 RMK A01 T002100-0  RH  086%=      5-min Rain = 0
KCA1 191310Z 07005KT 02/00 A2992 RMK A01 T00220000  RH  085%=      5-min Rain = 0
KCA1 191311Z 07006KT 02/00 A2992 RMK A01 T002200-0  RH  085%=      5-min Rain = 0
KCA1 191312Z 07006KT 02/M00 A2992 RMK A01 T00221001  RH  085%=      5-min Rain = 0
KCA1 191313Z 08007KT 02/M00 A2992 RMK A01 T00211001  RH  085%=      5-min Rain = 0
KCA1 191314Z 08007KT 02/00 A2991 RMK A01 T002100-0  RH  086%=      5-min Rain = 0
KCA1 191315Z 08008KT 02/00 A2991 RMK A01 T002100-0  RH  086%=      5-min Rain = 0
KCA1 191316Z 08008KT 02/00 A2991 RMK A01 T002100-0  RH  086%=      5-min Rain = 0
KCA1 191317Z 08009KT 02/00 A2991 RMK A01 T002100-0  RH  086%=      5-min Rain = 0
KCA1 191318Z 09009KT 02/00 A2991 RMK A01 T002100-0  RH  086%=      5-min Rain = 0
KCA1 191319Z 09009KT 02/M00 A2991 RMK A01 T00221001  RH  085%=      5-min Rain = 0
KCA1 191320Z 09009KT 02/00 A2991 RMK A01 T002200-0  RH  085%=      5-min Rain = 0
KCA1 191321Z 10009KT 02/00 A2991 RMK A01 T00230001  RH  086%=      5-min Rain = 0
KCA1 191322Z 10009KT 02/00 A2991 RMK A01 T00240001  RH  085%=      5-min Rain = 0
KCA1 191323Z 10009KT 03/00 A2991 RMK A01 T00250002  RH  085%=      5-min Rain = 0
KCA1 191324Z 10009KT 03/00 A2991 RMK A01 T00260002  RH  084%=      5-min Rain = 0
KCA1 191325Z 09009KT 03/00 A2991 RMK A01 T00270002  RH  084%=      5-min Rain = 0
KCA1 191326Z 09009KT 03/00 A2991 RMK A01 T00280002  RH  083%=      5-min Rain = 0
KCA1 191327Z 09009KT 03/00 A2991 RMK A01 T00290002  RH  083%=      5-min Rain = 0
KCA1 191328Z 09009KT 03/00 A2991 RMK A01 T00290002  RH  083%=      5-min Rain = 0
KCA1 191329Z 09009KT 03/00 A2991 RMK A01 T00300002  RH  082%=      5-min Rain = 0
KCA1 191330Z 09008KT 03/00 A2991 RMK A01 T00310002  RH  082%=      5-min Rain = 0
KCA1 191331Z 09008KT 03/00 A2991 RMK A01 T00310002  RH  081%=      5-min Rain = 0
KCA1 191332Z 09008KT 03/00 A2991 RMK A01 T00310001  RH  081%=      5-min Rain = 0
KCA1 191333Z 09008KT 03/00 A2991 RMK A01 T00310001  RH  081%=      5-min Rain = 0
KCA1 191334Z 09008KT 03/00 A2991 RMK A01 T00300001  RH  081%=      5-min Rain = 0
KCA1 191335Z 09008KT 03/00 A2991 RMK A01 T00290001  RH  081%=      5-min Rain = 0
KCA1 191336Z 09008KT 03/00 A2991 RMK A01 T00290001  RH  082%=      5-min Rain = 0
KCA1 191337Z 09008KT 03/00 A2991 RMK A01 T00290001  RH  082%=      5-min Rain = 0
KCA1 191338Z 09008KT 03/00 A2991 RMK A01 T00290001  RH  082%=      5-min Rain = 0
KCA1 191339Z 09008KT 03/00 A2991 RMK A01 T00290001  RH  082%=      5-min Rain = 0
KCA1 191340Z 09008KT 03/00 A2991 RMK A01 T00300002  RH  082%=      5-min Rain = 0
KCA1 191341Z 09008KT 03/00 A2991 RMK A01 T00300002  RH  082%=      5-min Rain = 0
KCA1 191342Z 10007KT 03/00 A2991 RMK A01 T00310002  RH  082%=      5-min Rain = 0
KCA1 191343Z 09007KT 03/00 A2991 RMK A01 T00320003  RH  081%=      5-min Rain = 0
KCA1 191344Z 10006KT 03/00 A2991 RMK A01 T00320003  RH  081%=      5-min Rain = 0
KCA1 191345Z 10006KT 03/00 A2991 RMK A01 T00310002  RH  081%=      5-min Rain = 0
KCA1 191346Z 10005KT 03/00 A2991 RMK A01 T00310002  RH  081%=      5-min Rain = 0
KCA1 191347Z 10005KT 03/00 A2991 RMK A01 T00320003  RH  081%=      5-min Rain = 0
KCA1 191348Z 11004KT 03/00 A2991 RMK A01 T00320003  RH  081%=      5-min Rain = 0
KCA1 191349Z 12003KT 03/00 A2991 RMK A01 T00320003  RH  081%=      5-min Rain = 0
KCA1 191350Z 13003KT 03/00 A2991 RMK A01 T00330003  RH  081%=      5-min Rain = 0
KCA1 191351Z 12003KT 03/00 A2991 RMK A01 T00320001  RH  080%=      5-min Rain = 0
KCA1 191352Z 12003KT 03/M00 A2991 RMK A01 T00281002  RH  080%=      5-min Rain = 0
KCA1 191353Z 12003KT 03/M00 A2991 RMK A01 T00261003  RH  082%=      5-min Rain = 0
KCA1 191354Z 13003KT 02/M00 A2991 RMK A01 T00241003  RH  082%=      5-min Rain = 0
KCA1 191355Z 13003KT 02/M00 A2991 RMK A01 T00221004  RH  083%=      5-min Rain = 0
KCA1 191356Z 13002KT 02/M01 A2991 RMK A01 T00201005  RH  083%=      5-min Rain = 0
KCA1 191357Z 14002KT 02/M01 A2991 RMK A01 T00181005  RH  084%=      5-min Rain = 0
KCA1 191358Z 14002KT 02/M01 A2991 RMK A01 T00171005  RH  086%=      5-min Rain = 0
KCA1 191359Z 15002KT 02/M00 A2991 RMK A01 T00171004  RH  086%=      5-min Rain = 0
KCA1 191400Z 15002KT 02/M00 A2991 RMK A01 T00161004  RH  087%=      5-min Rain = 0
KCA1 191401Z 15002KT 02/M00 A2991 RMK A01 T00171002  RH  087%=      5-min Rain = 0
KCA1 191402Z 15002KT 02/M00 A2991 RMK A01 T00181001  RH  087%=      5-min Rain = 0
KCA1 191403Z 15002KT 02/M00 A2991 RMK A01 T00191001  RH  087%=      5-min Rain = 0
KCA1 191404Z 15002KT 02/00 A2991 RMK A01 T002000-0  RH  087%=      5-min Rain = 0
KCA1 191405Z 15002KT 02/00 A2991 RMK A01 T00220001  RH  087%=      5-min Rain = 0
KCA1 191406Z 14002KT 02/00 A2991 RMK A01 T00240003  RH  086%=      5-min Rain = 0
KCA1 191407Z 14002KT 03/00 A2991 RMK A01 T00260004  RH  085%=      5-min Rain = 0
KCA1 191408Z 13002KT 03/00 A2991 RMK A01 T00280004  RH  084%=      5-min Rain = 0
KCA1 191409Z 12002KT 03/01 A2991 RMK A01 T00300005  RH  083%=      5-min Rain = 0
KCA1 191410Z 12002KT 03/01 A2991 RMK A01 T00320006  RH  083%=      5-min Rain = 0
KCA1 191411Z 12002KT 03/01 A2991 RMK A01 T00340006  RH  082%=      5-min Rain = 0
KCA1 191412Z 12002KT 04/01 A2991 RMK A01 T00360007  RH  081%=      5-min Rain = 0
KCA1 191413Z 11002KT 04/01 A2991 RMK A01 T00380007  RH  080%=      5-min Rain = 0
KCA1 191414Z 11002KT 04/01 A2991 RMK A01 T00400008  RH  080%=      5-min Rain = 0
KCA1 191415Z 11002KT 04/01 A2991 RMK A01 T00420009  RH  079%=      5-min Rain = 0
KCA1 191416Z 11003KT 04/01 A2991 RMK A01 T00440009  RH  078%=      5-min Rain = 0
KCA1 191417Z 11004KT 05/01 A2991 RMK A01 T00450009  RH  077%=      5-min Rain = 0
KCA1 191418Z 10003KT 05/01 A2991 RMK A01 T00470010  RH  077%=      5-min Rain = 0
KCA1 191419Z 11004KT 05/01 A2991 RMK A01 T00480010  RH  077%=      5-min Rain = 0
KCA1 191420Z 10003KT 05/01 A2991 RMK A01 T00500010  RH  076%=      5-min Rain = 0
KCA1 191421Z 11003KT 05/01 A2991 RMK A01 T00520011  RH  075%=      5-min Rain = 0
KCA1 191422Z 11003KT 05/01 A2991 RMK A01 T00530012  RH  075%=      5-min Rain = 0
KCA1 191423Z 11004KT 06/01 A2991 RMK A01 T00550012  RH  074%=      5-min Rain = 0
KCA1 191424Z 11003KT 06/01 A2991 RMK A01 T00560012  RH  073%=      5-min Rain = 0
KCA1 191425Z 12003KT 06/01 A2991 RMK A01 T00580013  RH  073%=      5-min Rain = 0
KCA1 191426Z 12003KT 06/01 A2991 RMK A01 T00590012  RH  072%=      5-min Rain = 0
KCA1 191427Z 12004KT 06/01 A2991 RMK A01 T00600012  RH  071%=      5-min Rain = 0
KCA1 191428Z 12004KT 06/01 A2991 RMK A01 T00610013  RH  071%=      5-min Rain = 0
KCA1 191429Z 12004KT 06/01 A2991 RMK A01 T00620013  RH  071%=      5-min Rain = 0
KCA1 191430Z 12004KT 06/01 A2991 RMK A01 T00630013  RH  070%=      5-min Rain = 0
KCA1 191431Z 12004KT 06/01 A2991 RMK A01 T00630012  RH  070%=      5-min Rain = 0
KCA1 191432Z 11005KT 06/01 A2991 RMK A01 T00640013  RH  070%=      5-min Rain = 0
KCA1 191433Z 11004KT 07/01 A2991 RMK A01 T00650013  RH  070%=      5-min Rain = 0
KCA1 191434Z 12005KT 07/01 A2991 RMK A01 T00660014  RH  070%=      5-min Rain = 0
KCA1 191435Z 12004KT 07/02 A2991 RMK A01 T00680015  RH  069%=      5-min Rain = 0
KCA1 191436Z 12005KT 07/02 A2991 RMK A01 T00690016  RH  069%=      5-min Rain = 0
KCA1 191437Z 12004KT 07/02 A2991 RMK A01 T00710016  RH  068%=      5-min Rain = 0
KCA1 191438Z 12005KT 07/02 A2991 RMK A01 T00720015  RH  067%=      5-min Rain = 0
KCA1 191439Z 13004KT 07/02 A2991 RMK A01 T00730016  RH  067%=      5-min Rain = 0
KCA1 191440Z 13005KT 08/02 A2991 RMK A01 T00750016  RH  066%=      5-min Rain = 0
KCA1 191441Z 12005KT 08/02 A2991 RMK A01 T00760017  RH  066%=      5-min Rain = 0
KCA1 191442Z 12003KT 08/02 A2991 RMK A01 T00770017  RH  066%=      5-min Rain = 0
KCA1 191443Z 12003KT 08/02 A2991 RMK A01 T00790018  RH  065%=      5-min Rain = 0
KCA1 191444Z 12004KT 08/02 A2991 RMK A01 T00800019  RH  065%=      5-min Rain = 0
KCA1 191445Z 13004KT 08/02 A2991 RMK A01 T00820019  RH  064%=      5-min Rain = 0
KCA1 191446Z 12004KT 08/02 A2991 RMK A01 T00840019  RH  064%=      5-min Rain = 0
KCA1 191447Z 12004KT 09/02 A2991 RMK A01 T00850018  RH  063%=      5-min Rain = 0
KCA1 191448Z 11005KT 09/02 A2991 RMK A01 T00850019  RH  063%=      5-min Rain = 0
KCA1 191449Z 12004KT 09/02 A2991 RMK A01 T00860018  RH  062%=      5-min Rain = 0
KCA1 191450Z 12003KT 09/02 A2991 RMK A01 T00870018  RH  062%=      5-min Rain = 0
KCA1 191451Z 12005KT 09/02 A2991 RMK A01 T00880019  RH  062%=      5-min Rain = 0
KCA1 191452Z 12004KT 09/02 A2991 RMK A01 T00890018  RH  061%=      5-min Rain = 0
KCA1 191453Z 12005KT 09/02 A2991 RMK A01 T00890018  RH  061%=      5-min Rain = 0
KCA1 191454Z 12006KT 09/02 A2991 RMK A01 T00900018  RH  061%=      5-min Rain = 0
KCA1 191455Z 13005KT 09/02 A2991 RMK A01 T00910019  RH  061%=      5-min Rain = 0
KCA1 191456Z 12005KT 09/02 A2991 RMK A01 T00920019  RH  061%=      5-min Rain = 0
KCA1 191457Z 12005KT 09/02 A2991 RMK A01 T00930020  RH  060%=      5-min Rain = 0
KCA1 191458Z 13005KT 09/02 A2991 RMK A01 T00940019  RH  060%=      5-min Rain = 0
KCA1 191459Z 12006KT 09/02 A2991 RMK A01 T00940019  RH  059%=      5-min Rain = 0
KCA1 191500Z 13004KT 09/02 A2991 RMK A01 T00940018  RH  059%=      5-min Rain = 0
KCA1 191501Z 13005KT 10/02 A2991 RMK A01 T00950020  RH  060%=      5-min Rain = 0
KCA1 191502Z 14004KT 10/02 A2991 RMK A01 T00960021  RH  059%=      5-min Rain = 0
KCA1 191503Z 14005KT 10/02 A2991 RMK A01 T00990022  RH  059%=      5-min Rain = 0
KCA1 191504Z 14004KT 10/02 A2991 RMK A01 T01000021  RH  058%=      5-min Rain = 0
KCA1 191505Z 14004KT 10/02 A2991 RMK A01 T01010022  RH  058%=      5-min Rain = 0
KCA1 191506Z 14003KT 10/02 A2991 RMK A01 T01020022  RH  058%=      5-min Rain = 0
KCA1 191507Z 14005KT 10/02 A2991 RMK A01 T01020022  RH  058%=      5-min Rain = 0
KCA1 191508Z 13005KT 10/02 A2991 RMK A01 T01030022  RH  057%=      5-min Rain = 0
KCA1 191509Z 13005KT 10/02 A2991 RMK A01 T01030022  RH  057%=      5-min Rain = 0
KCA1 191510Z 13005KT 10/02 A2991 RMK A01 T01030021  RH  057%=      5-min Rain = 0
KCA1 191511Z 14005KT 10/02 A2991 RMK A01 T01020021  RH  057%=      5-min Rain = 0
KCA1 191512Z 13004KT 10/02 A2991 RMK A01 T01020022  RH  058%=      5-min Rain = 0
KCA1 191513Z 13004KT 10/02 A2991 RMK A01 T01030023  RH  057%=      5-min Rain = 0
KCA1 191514Z 14003KT 10/02 A2991 RMK A01 T01040023  RH  057%=      5-min Rain = 0
KCA1 191515Z 16003KT 10/02 A2991 RMK A01 T01040023  RH  057%=      5-min Rain = 0
KCA1 191516Z 14004KT 11/02 A2991 RMK A01 T01060024  RH  057%=      5-min Rain = 0
KCA1 191517Z 14004KT 11/03 A2991 RMK A01 T01080026  RH  057%=      5-min Rain = 0
KCA1 191518Z 15004KT 11/03 A2991 RMK A01 T01100026  RH  056%=      5-min Rain = 0
KCA1 191519Z 16003KT 11/03 A2991 RMK A01 T01110026  RH  056%=      5-min Rain = 0
KCA1 191520Z 14005KT 11/03 A2991 RMK A01 T01120027  RH  056%=      5-min Rain = 0
KCA1 191521Z 15003KT 11/03 A2991 RMK A01 T01130026  RH  055%=      5-min Rain = 0
KCA1 191522Z 14003KT 11/03 A2991 RMK A01 T01130026  RH  055%=      5-min Rain = 0
KCA1 191523Z 14005KT 11/03 A2991 RMK A01 T01130027  RH  056%=      5-min Rain = 0
KCA1 191524Z 13005KT 11/03 A2991 RMK A01 T01140027  RH  055%=      5-min Rain = 0
KCA1 191525Z 14004KT 11/03 A2991 RMK A01 T01140028  RH  055%=      5-min Rain = 0
KCA1 191526Z 14005KT 12/03 A2991 RMK A01 T01150029  RH  055%=      5-min Rain = 0
KCA1 191527Z 14005KT 12/03 A2991 RMK A01 T01160028  RH  055%=      5-min Rain = 0
KCA1 191528Z 13005KT 12/03 A2991 RMK A01 T01160029  RH  055%=      5-min Rain = 0
KCA1 191529Z 14005KT 12/03 A2991 RMK A01 T01160029  RH  055%=      5-min Rain = 0
KCA1 191530Z 14005KT 12/03 A2991 RMK A01 T01170029  RH  055%=      5-min Rain = 0
KCA1 191531Z 12005KT 12/03 A2991 RMK A01 T01180031  RH  055%=      5-min Rain = 0
KCA1 191532Z 12007KT 12/03 A2991 RMK A01 T01200032  RH  055%=      5-min Rain = 0
KCA1 191533Z 13006KT 12/03 A2991 RMK A01 T01200031  RH  054%=      5-min Rain = 0
KCA1 191534Z 13006KT 12/03 A2991 RMK A01 T01200032  RH  055%=      5-min Rain = 0
KCA1 191535Z 12006KT 12/03 A2991 RMK A01 T01210033  RH  055%=      5-min Rain = 0
KCA1 191536Z 13005KT 12/03 A2991 RMK A01 T01220033  RH  055%=      5-min Rain = 0
KCA1 191537Z 12007KT 12/03 A2991 RMK A01 T01220033  RH  054%=      5-min Rain = 0
KCA1 191538Z 13005KT 12/03 A2991 RMK A01 T01230033  RH  054%=      5-min Rain = 0
KCA1 191539Z 14007KT 12/03 A2991 RMK A01 T01230033  RH  054%=      5-min Rain = 0
KCA1 191540Z 13006KT 12/03 A2991 RMK A01 T01240034  RH  054%=      5-min Rain = 0
KCA1 191541Z 13005KT 13/03 A2991 RMK A01 T01250034  RH  054%=      5-min Rain = 0
KCA1 191542Z 13006KT 13/04 A2991 RMK A01 T01260035  RH  054%=      5-min Rain = 0
KCA1 191543Z 14006KT 13/03 A2991 RMK A01 T01270034  RH  053%=      5-min Rain = 0
KCA1 191544Z 14005KT 13/03 A2991 RMK A01 T01270034  RH  053%=      5-min Rain = 0
KCA1 191545Z 13007KT 13/04 A2991 RMK A01 T01270035  RH  053%=      5-min Rain = 0
KCA1 191546Z 13005KT 13/04 A2991 RMK A01 T01290035  RH  053%=      5-min Rain = 0
KCA1 191547Z 13006KT 13/04 A2991 RMK A01 T01300036  RH  053%=      5-min Rain = 0
KCA1 191548Z 14007KT 13/04 A2991 RMK A01 T01310036  RH  052%=      5-min Rain = 0
KCA1 191549Z 14006KT 13/04 A2991 RMK A01 T01320036  RH  052%=      5-min Rain = 0
KCA1 191550Z 14005KT 13/04 A2991 RMK A01 T01330037  RH  052%=      5-min Rain = 0
KCA1 191551Z 15006KT 14/04 A2991 RMK A01 T01360038  RH  052%=      5-min Rain = 0
KCA1 191552Z 15006KT 14/04 A2991 RMK A01 T01370037  RH  051%=      5-min Rain = 0
KCA1 191553Z 15005KT 14/04 A2991 RMK A01 T01370037  RH  051%=      5-min Rain = 0
KCA1 191554Z 16005KT 14/04 A2991 RMK A01 T01370039  RH  051%=      5-min Rain = 0
KCA1 191555Z 15005KT 14/04 A2991 RMK A01 T01390039  RH  051%=      5-min Rain = 0
KCA1 191556Z 15005KT 14/04 A2991 RMK A01 T01400039  RH  051%=      5-min Rain = 0
KCA1 191557Z 14005KT 14/04 A2991 RMK A01 T01410040  RH  050%=      5-min Rain = 0
KCA1 191558Z 13006KT 14/04 A2991 RMK A01 T01430040  RH  050%=      5-min Rain = 0
KCA1 191559Z 13007KT 14/04 A2991 RMK A01 T01430039  RH  050%=      5-min Rain = 0
KCA1 191600Z 12006KT 14/04 A2991 RMK A01 T01430040  RH  050%=      5-min Rain = 0
KCA1 191601Z 14006KT 14/04 A2991 RMK A01 T01430040  RH  050%=      5-min Rain = 0
KCA1 191602Z 14005KT 14/04 A2991 RMK A01 T01440041  RH  050%=      5-min Rain = 0
KCA1 191603Z 15005KT 15/04 A2991 RMK A01 T01450042  RH  050%=      5-min Rain = 0
KCA1 191604Z 13005KT 15/04 A2991 RMK A01 T01490044  RH  049%=      5-min Rain = 0
KCA1 191605Z 13007KT 15/04 A2991 RMK A01 T01520043  RH  048%=      5-min Rain = 0
KCA1 191606Z 14006KT 15/04 A2991 RMK A01 T01530044  RH  048%=      5-min Rain = 0
KCA1 191607Z 15007KT 15/04 A2991 RMK A01 T01540043  RH  048%=      5-min Rain = 0
KCA1 191608Z 14007KT 15/04 A2991 RMK A01 T01540043  RH  048%=      5-min Rain = 0
KCA1 191609Z 15006KT 16/04 A2991 RMK A01 T01550044  RH  048%=      5-min Rain = 0
KCA1 191610Z 15008KT 16/05 A2991 RMK A01 T01570045  RH  047%=      5-min Rain = 0
KCA1 191611Z 15007KT 16/05 A2991 RMK A01 T01590046  RH  047%=      5-min Rain = 0
KCA1 191612Z 15008KT 16/05 A2991 RMK A01 T01610045  RH  046%=      5-min Rain = 0
KCA1 191613Z 15007KT 16/05 A2991 RMK A01 T01620046  RH  046%=      5-min Rain = 0
KCA1 191614Z 15006KT 16/05 A2991 RMK A01 T01640048  RH  046%=      5-min Rain = 0
KCA1 191615Z 16008KT 17/05 A2991 RMK A01 T01680050  RH  045%=      5-min Rain = 0
KCA1 191616Z 15009KT 17/05 A2991 RMK A01 T01700047  RH  044%=      5-min Rain = 0
KCA1 191617Z 15008KT 17/05 A2991 RMK A01 T01690047  RH  044%=      5-min Rain = 0
KCA1 191618Z 15008KT 17/05 A299 RMK A01 T01690047  RH  044%=      5-min Rain = 0
KCA1 191619Z 15009KT 17/05 A299 RMK A01 T01700048  RH  044%=      5-min Rain = 0
KCA1 191620Z 15008KT 17/05 A299 RMK A01 T01710047  RH  044%=      5-min Rain = 0
KCA1 191621Z 15009KT 17/05 A299 RMK A01 T01710047  RH  044%=      5-min Rain = 0
KCA1 191622Z 14008KT 17/05 A299 RMK A01 T01720048  RH  044%=      5-min Rain = 0
KCA1 191623Z 15010KT 17/05 A299 RMK A01 T01730048  RH  044%=      5-min Rain = 0
KCA1 191624Z 15010KT 18/05 A299 RMK A01 T01750048  RH  043%=      5-min Rain = 0
KCA1 191625Z 15009KT 18/05 A299 RMK A01 T01770049  RH  043%=      5-min Rain = 0
KCA1 191626Z 14009KT 18/05 A299 RMK A01 T01780049  RH  042%=      5-min Rain = 0
KCA1 191627Z 14008KT 18/05 A299 RMK A01 T01790049  RH  042%=      5-min Rain = 0
KCA1 191628Z 13008KT 18/05 A299 RMK A01 T01800049  RH  042%=      5-min Rain = 0
KCA1 191629Z 13008KT 18/05 A299 RMK A01 T01810050  RH  042%=      5-min Rain = 0
KCA1 191630Z 13010KT 18/05 A299 RMK A01 T01830050  RH  041%=      5-min Rain = 0
KCA1 191631Z 12008KT 18/05 A299 RMK A01 T01840049  RH  041%=      5-min Rain = 0
KCA1 191632Z 12008KT 18/05 A299 RMK A01 T01830049  RH  041%=      5-min Rain = 0
KCA1 191633Z 13008KT 18/05 A299 RMK A01 T01830049  RH  041%=      5-min Rain = 0
KCA1 191634Z 14006KT 18/05 A299 RMK A01 T01840049  RH  041%=      5-min Rain = 0
KCA1 191635Z 13007KT 19/05 A299 RMK A01 T01860050  RH  041%=      5-min Rain = 0
KCA1 191636Z 12006KT 19/05 A299 RMK A01 T01880050  RH  040%=      5-min Rain = 0
KCA1 191637Z 11007KT 19/05 A299 RMK A01 T01880049  RH  040%=      5-min Rain = 0
KCA1 191638Z 12008KT 19/05 A299 RMK A01 T01880050  RH  040%=      5-min Rain = 0
KCA1 191639Z 14008KT 19/05 A299 RMK A01 T01910051  RH  040%=      5-min Rain = 0
KCA1 191640Z 14008KT 19/05 A299 RMK A01 T01920050  RH  039%=      5-min Rain = 0
KCA1 191641Z 15010KT 19/05 A299 RMK A01 T01930050  RH  039%=      5-min Rain = 0
KCA1 191642Z 17012KT 20/05 A2989 RMK A01 T01960049  RH  038%=      5-min Rain = 0
KCA1 191643Z 15013KT 20/05 A2989 RMK A01 T02000047  RH  037%=      5-min Rain = 0
KCA1 191644Z 15019KT 20/04 A2989 RMK A01 T02030044  RH  035%=      5-min Rain = 0
KCA1 191645Z 15018KT 20/04 A2989 RMK A01 T02040044  RH  035%=      5-min Rain = 0
KCA1 191646Z 16017KT 21/04 A2989 RMK A01 T02050042  RH  034%=      5-min Rain = 0
KCA1 191647Z 16019G24KT 20/04 A2989 RMK A01 T02040041  RH  034%=      5-min Rain = 0
KCA1 191648Z 16019KT 21/04 A2989 RMK A01 T02050042  RH  034%=      5-min Rain = 0
KCA1 191649Z 16017KT 21/04 A2989 RMK A01 T02050041  RH  034%=      5-min Rain = 0
KCA1 191650Z 16017KT 21/04 A2989 RMK A01 T02050041  RH  034%=      5-min Rain = 0
KCA1 191651Z 16017KT 21/04 A2989 RMK A01 T02050041  RH  034%=      5-min Rain = 0
KCA1 191652Z 16016KT 21/04 A2989 RMK A01 T02050042  RH  034%=      5-min Rain = 0
KCA1 191653Z 16016KT 21/04 A2989 RMK A01 T02050043  RH  034%=      5-min Rain = 0
KCA1 191654Z 16017KT 21/04 A2989 RMK A01 T02060043  RH  034%=      5-min Rain = 0
KCA1 191655Z 16016KT 21/04 A2989 RMK A01 T02060044  RH  034%=      5-min Rain = 0
KCA1 191656Z 17016KT 21/04 A2989 RMK A01 T02060044  RH  035%=      5-min Rain = 0
KCA1 191657Z 16019KT 21/04 A2989 RMK A01 T02060044  RH  035%=      5-min Rain = 0
KCA1 191658Z 16018KT 21/04 A2989 RMK A01 T02060043  RH  034%=      5-min Rain = 0
KCA1 191659Z 16015G20KT 21/04 A2989 RMK A01 T02060043  RH  034%=      5-min Rain = 0
KCA1 191700Z 16019KT 21/04 A2988 RMK A01 T02060043  RH  034%=      5-min Rain = 0
KCA1 191701Z 17019KT 21/04 A2988 RMK A01 T02070042  RH  034%=      5-min Rain = 0
KCA1 191702Z 16020KT 21/04 A2988 RMK A01 T02080041  RH  033%=      5-min Rain = 0
KCA1 191703Z 17019KT 21/04 A2988 RMK A01 T02070041  RH  034%=      5-min Rain = 0
KCA1 191704Z 17019KT 21/04 A2988 RMK A01 T02050040  RH  034%=      5-min Rain = 0
KCA1 191705Z 17016KT 20/04 A2988 RMK A01 T02040040  RH  034%=      5-min Rain = 0
KCA1 191706Z 16014KT 21/04 A2988 RMK A01 T02050041  RH  034%=      5-min Rain = 0
KCA1 191707Z 16017KT 21/04 A2988 RMK A01 T02070042  RH  034%=      5-min Rain = 0
KCA1 191708Z 16018KT 21/04 A2988 RMK A01 T02080041  RH  033%=      5-min Rain = 0
KCA1 191709Z 16016KT 21/04 A2988 RMK A01 T02070041  RH  033%=      5-min Rain = 0
KCA1 191710Z 15013KT 21/04 A2988 RMK A01 T02070042  RH  034%=      5-min Rain = 0
KCA1 191711Z 15017KT 21/04 A2988 RMK A01 T02090043  RH  034%=      5-min Rain = 0
KCA1 191712Z 15016KT 21/04 A2988 RMK A01 T02100042  RH  033%=      5-min Rain = 0
KCA1 191713Z 15017KT 21/04 A2988 RMK A01 T02110043  RH  033%=      5-min Rain = 0
KCA1 191714Z 17012KT 21/04 A2988 RMK A01 T02110042  RH  033%=      5-min Rain = 0
KCA1 191715Z 17019KT 21/04 A2988 RMK A01 T02120041  RH  033%=      5-min Rain = 0
KCA1 191716Z 17017KT 21/04 A2988 RMK A01 T02120039  RH  032%=      5-min Rain = 0
KCA1 191717Z 17017KT 21/04 A2988 RMK A01 T02110040  RH  032%=      5-min Rain = 0
KCA1 191718Z 17016KT 21/04 A2988 RMK A01 T02110039  RH  032%=      5-min Rain = 0
KCA1 191719Z 16014KT 21/04 A2988 RMK A01 T02120040  RH  032%=      5-min Rain = 0
KCA1 191720Z 17015KT 21/04 A2988 RMK A01 T02140040  RH  032%=      5-min Rain = 0
KCA1 191721Z 16015KT 22/04 A2987 RMK A01 T02150039  RH  031%=      5-min Rain = 0
KCA1 191722Z 16017G23KT 22/04 A2987 RMK A01 T02160039  RH  031%=      5-min Rain = 0
KCA1 191723Z 15015KT 22/04 A2987 RMK A01 T02160038  RH  031%=      5-min Rain = 0
KCA1 191724Z 15017G22KT 22/04 A2987 RMK A01 T02160038  RH  031%=      5-min Rain = 0
KCA1 191725Z 16019KT 22/04 A2987 RMK A01 T02170036  RH  031%=      5-min Rain = 0
KCA1 191726Z 16019KT 22/03 A2987 RMK A01 T02170034  RH  030%=      5-min Rain = 0
KCA1 191727Z 16017KT 22/04 A2987 RMK A01 T02160035  RH  030%=      5-min Rain = 0
KCA1 191728Z 16018KT 22/03 A2987 RMK A01 T02160034  RH  030%=      5-min Rain = 0
KCA1 191729Z 16020KT 22/03 A2987 RMK A01 T02160034  RH  030%=      5-min Rain = 0
KCA1 191730Z 16014G19KT 22/03 A2987 RMK A01 T02150034  RH  030%=      5-min Rain = 0
KCA1 191731Z 16016KT 22/04 A2987 RMK A01 T02150035  RH  030%=      5-min Rain = 0
KCA1 191732Z 17015KT 22/04 A2987 RMK A01 T02160035  RH  030%=      5-min Rain = 0
KCA1 191733Z 17014KT 22/04 A2987 RMK A01 T02170036  RH  030%=      5-min Rain = 0
KCA1 191734Z 15012KT 22/04 A2987 RMK A01 T02180037  RH  031%=      5-min Rain = 0
KCA1 191735Z 15015KT 22/04 A2987 RMK A01 T02200037  RH  030%=      5-min Rain = 0
KCA1 191736Z 15016KT 22/04 A2987 RMK A01 T02200036  RH  030%=      5-min Rain = 0
KCA1 191737Z 16016G21KT 22/04 A2987 RMK A01 T02200036  RH  030%=      5-min Rain = 0
KCA1 191738Z 17020KT 22/03 A2986 RMK A01 T02190031  RH  029%=      5-min Rain = 0
KCA1 191739Z 17018KT 22/03 A2986 RMK A01 T02180031  RH  029%=      5-min Rain = 0
KCA1 191740Z 17017G22KT 22/03 A2986 RMK A01 T02170032  RH  030%=      5-min Rain = 0
KCA1 191741Z 17016KT 22/03 A2986 RMK A01 T02170032  RH  030%=      5-min Rain = 0
KCA1 191742Z 17017G23KT 22/03 A2986 RMK A01 T02170033  RH  030%=      5-min Rain = 0
KCA1 191743Z 16018G23KT 22/03 A2986 RMK A01 T02170032  RH  030%=      5-min Rain = 0
KCA1 191744Z 16016G21KT 22/03 A2986 RMK A01 T02160030  RH  029%=      5-min Rain = 0
KCA1 191745Z 17017KT 22/03 A2986 RMK A01 T02160031  RH  030%=      5-min Rain = 0
KCA1 191746Z 15014KT 22/03 A2986 RMK A01 T02170032  RH  030%=      5-min Rain = 0
KCA1 191747Z 15019KT 22/03 A2986 RMK A01 T02180032  RH  029%=      5-min Rain = 0
KCA1 191748Z 15019KT 22/03 A2986 RMK A01 T02180031  RH  029%=      5-min Rain = 0
KCA1 191749Z 15017KT 22/03 A2986 RMK A01 T02180031  RH  029%=      5-min Rain = 0
KCA1 191750Z 16018KT 22/03 A2986 RMK A01 T02180030  RH  029%=      5-min Rain = 0
KCA1 191751Z 16017KT 22/03 A2986 RMK A01 T02180031  RH  029%=      5-min Rain = 0
KCA1 191752Z 16018KT 22/03 A2986 RMK A01 T02180031  RH  029%=      5-min Rain = 0
KCA1 191753Z 16019KT 22/03 A2986 RMK A01 T02180031  RH  029%=      5-min Rain = 0
KCA1 191754Z 15018KT 22/03 A2986 RMK A01 T02170031  RH  029%=      5-min Rain = 0
KCA1 191755Z 16017G22KT 22/03 A2986 RMK A01 T02170030  RH  029%=      5-min Rain = 0
KCA1 191756Z 17017KT 22/03 A2986 RMK A01 T02180031  RH  029%=      5-min Rain = 0
KCA1 191757Z 18018KT 22/03 A2985 RMK A01 T02190031  RH  029%=      5-min Rain = 0
KCA1 191758Z 16020G25KT 22/03 A2985 RMK A01 T02180031  RH  029%=      5-min Rain = 0
KCA1 191759Z 16019KT 22/03 A2985 RMK A01 T02170030  RH  029%=      5-min Rain = 0
KCA1 191800Z 16019G24KT 22/03 A2985 RMK A01 T02170030  RH  029%=      5-min Rain = 0
KCA1 191801Z 16019KT 22/03 A2985 RMK A01 T02180030  RH  029%=      5-min Rain = 0
KCA1 191802Z 16015KT 22/03 A2985 RMK A01 T02190030  RH  029%=      5-min Rain = 0
KCA1 191803Z 17017G23KT 22/03 A2985 RMK A01 T02200031  RH  029%=      5-min Rain = 0
KCA1 191804Z 17019KT 22/03 A2985 RMK A01 T02210031  RH  029%=      5-min Rain = 0
KCA1 191805Z 18017KT 22/03 A2985 RMK A01 T02220032  RH  029%=      5-min Rain = 0
KCA1 191806Z 17015KT 22/03 A2985 RMK A01 T02220033  RH  029%=      5-min Rain = 0
KCA1 191807Z 17016KT 22/03 A2985 RMK A01 T02220033  RH  029%=      5-min Rain = 0
KCA1 191808Z 17016G21KT 22/03 A2985 RMK A01 T02220032  RH  029%=      5-min Rain = 0
KCA1 191809Z 16019G24KT 22/03 A2985 RMK A01 T02230033  RH  029%=      5-min Rain = 0
KCA1 191810Z 16019KT 22/03 A2985 RMK A01 T02230032  RH  029%=      5-min Rain = 0
KCA1 191811Z 16019G24KT 22/03 A2984 RMK A01 T02220031  RH  028%=      5-min Rain = 0
KCA1 191812Z 17020KT 22/03 A2984 RMK A01 T02210030  RH  029%=      5-min Rain = 0
KCA1 191813Z 16017KT 22/03 A2984 RMK A01 T02220030  RH  028%=      5-min Rain = 0
KCA1 191814Z 16018G24KT 22/03 A2984 RMK A01 T02240031  RH  028%=      5-min Rain = 0
KCA1 191815Z 18017KT 23/03 A2984 RMK A01 T02260032  RH  028%=      5-min Rain = 0
KCA1 191816Z 17020KT 23/03 A2984 RMK A01 T02260031  RH  028%=      5-min Rain = 0
KCA1 191817Z 18017KT 22/03 A2984 RMK A01 T02240030  RH  028%=      5-min Rain = 0
KCA1 191818Z 17017G22KT 22/03 A2984 RMK A01 T02240031  RH  028%=      5-min Rain = 0
KCA1 191819Z 17018KT 23/03 A2984 RMK A01 T02260031  RH  028%=      5-min Rain = 0
KCA1 191820Z 17017KT 23/03 A2984 RMK A01 T02270028  RH  027%=      5-min Rain = 0
KCA1 191821Z 18017KT 23/03 A2984 RMK A01 T02280029  RH  027%=      5-min Rain = 0
KCA1 191822Z 16016KT 23/03 A2984 RMK A01 T02300031  RH  027%=      5-min Rain = 0
KCA1 191823Z 16013KT 23/03 A2984 RMK A01 T02320033  RH  027%=      5-min Rain = 0
KCA1 191824Z 16017G22KT 23/03 A2983 RMK A01 T02340033  RH  027%=      5-min Rain = 0
KCA1 191825Z 16019G26KT 23/03 A2983 RMK A01 T02340032  RH  027%=      5-min Rain = 0
KCA1 191826Z 17023KT 23/03 A2983 RMK A01 T02320027  RH  026%=      5-min Rain = 0
KCA1 191827Z 17019KT 23/03 A2983 RMK A01 T02290025  RH  026%=      5-min Rain = 0
KCA1 191828Z 16021KT 23/03 A2983 RMK A01 T02290026  RH  026%=      5-min Rain = 0
KCA1 191829Z 16021KT 23/03 A2983 RMK A01 T02300025  RH  026%=      5-min Rain = 0
KCA1 191830Z 18019G25KT 23/02 A2982 RMK A01 T02310023  RH  026%=      5-min Rain = 0
KCA1 191831Z 18017G25KT 23/02 A2982 RMK A01 T02310020  RH  025%=      5-min Rain = 0
KCA1 191832Z 18026KT 23/02 A2982 RMK A01 T02330018  RH  024%=      5-min Rain = 0
KCA1 191833Z 17020KT 23/02 A2982 RMK A01 T02310017  RH  025%=      5-min Rain = 0
KCA1 191834Z 18021G26KT 23/02 A2982 RMK A01 T02300020  RH  025%=      5-min Rain = 0
KCA1 191835Z 17019G24KT 23/02 A2982 RMK A01 T02310021  RH  025%=      5-min Rain = 0
KCA1 191836Z 16023G33KT 23/02 A2981 RMK A01 T02320023  RH  025%=      5-min Rain = 0
KCA1 191837Z 16023KT 23/02 A2981 RMK A01 T02320019  RH  025%=      5-min Rain = 0
KCA1 191838Z 17025KT 23/02 A2981 RMK A01 T02320018  RH  024%=      5-min Rain = 0
KCA1 191839Z 17023G29KT 23/02 A2981 RMK A01 T02320015  RH  024%=      5-min Rain = 0
KCA1 191840Z 18023G29KT 23/02 A2981 RMK A01 T02330016  RH  024%=      5-min Rain = 0
KCA1 191841Z 18019G27KT 23/02 A2981 RMK A01 T02340015  RH  024%=      5-min Rain = 0
KCA1 191842Z 17017G25KT 24/02 A2981 RMK A01 T02350016  RH  024%=      5-min Rain = 0
KCA1 191843Z 17021G28KT 24/02 A2981 RMK A01 T02390019  RH  024%=      5-min Rain = 0
KCA1 191844Z 17023G28KT 24/02 A2981 RMK A01 T02400016  RH  023%=      5-min Rain = 0
KCA1 191845Z 17026G31KT 24/01 A2981 RMK A01 T02360012  RH  023%=      5-min Rain = 0
KCA1 191846Z 17024G30KT 23/01 A2981 RMK A01 T02330014  RH  024%=      5-min Rain = 0
KCA1 191847Z 17022G28KT 23/01 A2981 RMK A01 T02330014  RH  024%=      5-min Rain = 0
KCA1 191848Z 18021G26KT 23/01 A2981 RMK A01 T02340014  RH  024%=      5-min Rain = 0
KCA1 191849Z 18023G32KT 24/01 A298 RMK A01 T02350014  RH  023%=      5-min Rain = 0
KCA1 191850Z 17028G34KT 24/01 A2981 RMK A01 T02350014  RH  023%=      5-min Rain = 0
KCA1 191851Z 17026KT 23/01 A298 RMK A01 T02330013  RH  023%=      5-min Rain = 0
KCA1 191852Z 17025KT 23/01 A2981 RMK A01 T02310014  RH  024%=      5-min Rain = 0
KCA1 191853Z 17023G29KT 23/01 A298 RMK A01 T02300014  RH  024%=      5-min Rain = 0
KCA1 191854Z 17023G29KT 23/02 A2981 RMK A01 T02310015  RH  024%=      5-min Rain = 0
KCA1 191855Z 17023KT 23/02 A298 RMK A01 T02310016  RH  024%=      5-min Rain = 0
KCA1 191856Z 17024KT 23/02 A298 RMK A01 T02310016  RH  024%=      5-min Rain = 0
KCA1 191857Z 17023G29KT 23/02 A298 RMK A01 T02300017  RH  024%=      5-min Rain = 0
KCA1 191858Z 18028G33KT 23/01 A298 RMK A01 T02280014  RH  024%=      5-min Rain = 0
KCA1 191859Z 18026KT 23/01 A298 RMK A01 T02270014  RH  025%=      5-min Rain = 0
KCA1 191900Z 17025G30KT 23/02 A298 RMK A01 T02270015  RH  025%=      5-min Rain = 0
KCA1 191901Z 17023KT 23/02 A298 RMK A01 T02280017  RH  025%=      5-min Rain = 0
KCA1 191902Z 18019G24KT 23/02 A298 RMK A01 T02290018  RH  025%=      5-min Rain = 0
KCA1 191903Z 17018KT 23/02 A298 RMK A01 T02320020  RH  025%=      5-min Rain = 0
KCA1 191904Z 16022G27KT 24/02 A298 RMK A01 T02350021  RH  025%=      5-min Rain = 0
KCA1 191905Z 16025KT 23/02 A2979 RMK A01 T02340019  RH  024%=      5-min Rain = 0
KCA1 191906Z 16020KT 23/02 A2979 RMK A01 T02310019  RH  025%=      5-min Rain = 0
KCA1 191907Z 16023KT 23/02 A2979 RMK A01 T02310020  RH  025%=      5-min Rain = 0
KCA1 191908Z 16020G25KT 23/02 A2979 RMK A01 T02320020  RH  025%=      5-min Rain = 0
KCA1 191909Z 16020G28KT 24/02 A2979 RMK A01 T02360022  RH  025%=      5-min Rain = 0
KCA1 191910Z 17024KT 24/02 A2979 RMK A01 T02380020  RH  024%=      5-min Rain = 0
KCA1 191911Z 18023KT 24/02 A2979 RMK A01 T02380020  RH  024%=      5-min Rain = 0
KCA1 191912Z 18024G31KT 24/02 A2979 RMK A01 T02380017  RH  023%=      5-min Rain = 0
KCA1 191913Z 18024G29KT 24/02 A2979 RMK A01 T02380016  RH  023%=      5-min Rain = 0
KCA1 191914Z 16020G27KT 24/02 A2979 RMK A01 T02390017  RH  023%=      5-min Rain = 0
KCA1 191915Z 16022G27KT 24/02 A2979 RMK A01 T02410019  RH  023%=      5-min Rain = 0
KCA1 191916Z 17025G32KT 24/02 A2979 RMK A01 T02430015  RH  022%=      5-min Rain = 0
KCA1 191917Z 17024G30KT 24/01 A2979 RMK A01 T02430011  RH  022%=      5-min Rain = 0
KCA1 191918Z 17026G33KT 24/01 A2978 RMK A01 T02410009  RH  022%=      5-min Rain = 0
KCA1 191919Z 17020G25KT 24/01 A2979 RMK A01 T02410009  RH  022%=      5-min Rain = 0
KCA1 191920Z 16022G27KT 24/01 A2979 RMK A01 T02410008  RH  022%=      5-min Rain = 0
KCA1 191921Z 16024G29KT 24/01 A2978 RMK A01 T02420009  RH  022%=      5-min Rain = 0
KCA1 191922Z 17024G30KT 24/01 A2978 RMK A01 T02420009  RH  021%=      5-min Rain = 0
KCA1 191923Z 17025G31KT 24/01 A2978 RMK A01 T02420008  RH  021%=      5-min Rain = 0
KCA1 191924Z 17025G31KT 24/01 A2978 RMK A01 T02420007  RH  021%=      5-min Rain = 0
KCA1 191925Z 17026G32KT 24/01 A2978 RMK A01 T02410008  RH  022%=      5-min Rain = 0
KCA1 191926Z 17024KT 24/01 A2978 RMK A01 T02400008  RH  022%=      5-min Rain = 0
KCA1 191927Z 17027G32KT 24/01 A2978 RMK A01 T02400008  RH  022%=      5-min Rain = 0
KCA1 191928Z 17026G33KT 24/01 A2978 RMK A01 T02410007  RH  022%=      5-min Rain = 0
KCA1 191929Z 18028KT 24/01 A2978 RMK A01 T02400007  RH  022%=      5-min Rain = 0
KCA1 191930Z 17026G33KT 24/01 A2978 RMK A01 T02390006  RH  021%=      5-min Rain = 0
KCA1 191931Z 17024G29KT 24/01 A2978 RMK A01 T02390005  RH  021%=      5-min Rain = 0
KCA1 191932Z 17023G29KT 24/01 A2978 RMK A01 T02390005  RH  021%=      5-min Rain = 0
KCA1 191933Z 17027G32KT 24/01 A2978 RMK A01 T02400006  RH  021%=      5-min Rain = 0
KCA1 191934Z 17025G31KT 24/01 A2978 RMK A01 T02400006  RH  021%=      5-min Rain = 0
KCA1 191935Z 17024KT 24/01 A2978 RMK A01 T02400007  RH  021%=      5-min Rain = 0
KCA1 191936Z 18021KT 24/01 A2977 RMK A01 T02400007  RH  021%=      5-min Rain = 0
KCA1 191937Z 17021KT 24/01 A2978 RMK A01 T02410008  RH  022%=      5-min Rain = 0
KCA1 191938Z 17024G29KT 24/01 A2977 RMK A01 T02420007  RH  021%=      5-min Rain = 0
KCA1 191939Z 17022KT 24/01 A2977 RMK A01 T02430008  RH  021%=      5-min Rain = 0
KCA1 191940Z 17021G26KT 24/01 A2977 RMK A01 T02440008  RH  021%=      5-min Rain = 0
KCA1 191941Z 17023G31KT 25/01 A2977 RMK A01 T02450008  RH  021%=      5-min Rain = 0
KCA1 191942Z 17024G30KT 24/01 A2977 RMK A01 T02440008  RH  021%=      5-min Rain = 0
KCA1 191943Z 17026KT 24/01 A2977 RMK A01 T02430007  RH  021%=      5-min Rain = 0
KCA1 191944Z 17022G28KT 24/01 A2977 RMK A01 T02410006  RH  021%=      5-min Rain = 0
KCA1 191945Z 18022G30KT 24/01 A2977 RMK A01 T02410007  RH  021%=      5-min Rain = 0
KCA1 191946Z 17022G27KT 24/01 A2977 RMK A01 T02420008  RH  021%=      5-min Rain = 0
KCA1 191947Z 17020KT 24/01 A2977 RMK A01 T02440008  RH  021%=      5-min Rain = 0
KCA1 191948Z 18021KT 24/01 A2977 RMK A01 T02440007  RH  021%=      5-min Rain = 0
KCA1 191949Z 18024KT 24/01 A2977 RMK A01 T02440007  RH  021%=      5-min Rain = 0
KCA1 191950Z 18025KT 24/01 A2977 RMK A01 T02430005  RH  021%=      5-min Rain = 0
KCA1 191951Z 18026KT 24/01 A2977 RMK A01 T02410005  RH  021%=      5-min Rain = 0
KCA1 191952Z 18021G28KT 24/01 A2977 RMK A01 T02400007  RH  022%=      5-min Rain = 0
KCA1 191953Z 19022G27KT 24/01 A2977 RMK A01 T02400007  RH  022%=      5-min Rain = 0
KCA1 191954Z 18023KT 24/01 A2976 RMK A01 T02420007  RH  021%=      5-min Rain = 0
KCA1 191955Z 18027G32KT 24/01 A2976 RMK A01 T02420007  RH  021%=      5-min Rain = 0
KCA1 191956Z 18023G28KT 24/01 A2976 RMK A01 T02410008  RH  022%=      5-min Rain = 0
KCA1 191957Z 17021G26KT 24/01 A2977 RMK A01 T02410009  RH  022%=      5-min Rain = 0
KCA1 191958Z 17022G27KT 24/01 A2976 RMK A01 T02420010  RH  022%=      5-min Rain = 0
KCA1 191959Z 17020G26KT 24/01 A2976 RMK A01 T02410009  RH  022%=      5-min Rain = 0
KCA1 192000Z 18019KT 24/01 A2976 RMK A01 T02410010  RH  022%=      5-min Rain = 0
KCA1 192001Z 18020G26KT 24/01 A2976 RMK A01 T02410011  RH  022%=      5-min Rain = 0
KCA1 192002Z 17018G24KT 24/01 A2976 RMK A01 T02420011  RH  022%=      5-min Rain = 0
KCA1 192003Z 17017KT 24/01 A2976 RMK A01 T02420011  RH  022%=      5-min Rain = 0
KCA1 192004Z 16019G28KT 24/01 A2976 RMK A01 T02430012  RH  022%=      5-min Rain = 0
KCA1 192005Z 16021G26KT 24/01 A2976 RMK A01 T02430011  RH  022%=      5-min Rain = 0
KCA1 192006Z 17020G29KT 24/01 A2976 RMK A01 T02400009  RH  022%=      5-min Rain = 0
KCA1 192007Z 17023G31KT 24/01 A2976 RMK A01 T02390009  RH  022%=      5-min Rain = 0
KCA1 192008Z 17022G27KT 24/01 A2976 RMK A01 T02390010  RH  022%=      5-min Rain = 0
KCA1 192009Z 17023G28KT 24/01 A2976 RMK A01 T02400010  RH  022%=      5-min Rain = 0
KCA1 192010Z 18021KT 24/01 A2976 RMK A01 T02400010  RH  022%=      5-min Rain = 0
KCA1 192011Z 18024G31KT 24/01 A2976 RMK A01 T02410011  RH  022%=      5-min Rain = 0
KCA1 192012Z 17023G29KT 24/01 A2976 RMK A01 T02410010  RH  022%=      5-min Rain = 0
KCA1 192013Z 18020KT 24/01 A2976 RMK A01 T02410010  RH  022%=      5-min Rain = 0
KCA1 192014Z 18022KT 24/01 A2976 RMK A01 T02410011  RH  022%=      5-min Rain = 0
KCA1 192015Z 17017G25KT 24/01 A2976 RMK A01 T02410012  RH  022%=      5-min Rain = 0
KCA1 192016Z 17020KT 24/01 A2976 RMK A01 T02420013  RH  022%=      5-min Rain = 0
KCA1 192017Z 17016G21KT 24/01 A2976 RMK A01 T02420013  RH  022%=      5-min Rain = 0
KCA1 192018Z 16022G28KT 24/01 A2976 RMK A01 T02430014  RH  022%=      5-min Rain = 0
KCA1 192019Z 16020KT 24/01 A2976 RMK A01 T02420014  RH  022%=      5-min Rain = 0
KCA1 192020Z 18020G25KT 24/01 A2976 RMK A01 T02420014  RH  022%=      5-min Rain = 0
KCA1 192021Z 19023KT 24/01 A2976 RMK A01 T02420013  RH  022%=      5-min Rain = 0
KCA1 192022Z 19023G29KT 24/01 A2976 RMK A01 T02420012  RH  022%=      5-min Rain = 0
KCA1 192023Z 18022KT 24/01 A2976 RMK A01 T02410013  RH  022%=      5-min Rain = 0
KCA1 192024Z 18021G26KT 24/01 A2976 RMK A01 T02420014  RH  022%=      5-min Rain = 0
KCA1 192025Z 18020G26KT 24/01 A2976 RMK A01 T02430014  RH  022%=      5-min Rain = 0
KCA1 192026Z 18022KT 24/01 A2976 RMK A01 T02440013  RH  022%=      5-min Rain = 0
KCA1 192027Z 17024KT 24/01 A2976 RMK A01 T02420011  RH  022%=      5-min Rain = 0
KCA1 192028Z 18022KT 24/01 A2976 RMK A01 T02400011  RH  022%=      5-min Rain = 0
KCA1 192029Z 18024G30KT 24/01 A2976 RMK A01 T02400011  RH  022%=      5-min Rain = 0
KCA1 192030Z 18019G25KT 24/01 A2976 RMK A01 T02400012  RH  022%=      5-min Rain = 0
KCA1 192031Z 18021G27KT 24/01 A2976 RMK A01 T02410013  RH  022%=      5-min Rain = 0
KCA1 192032Z 18022KT 24/01 A2976 RMK A01 T02420013  RH  022%=      5-min Rain = 0
KCA1 192033Z 17019G25KT 24/01 A2976 RMK A01 T02420013  RH  022%=      5-min Rain = 0
KCA1 192034Z 18019G24KT 24/01 A2976 RMK A01 T02410013  RH  022%=      5-min Rain = 0
KCA1 192035Z 16019G24KT 24/01 A2976 RMK A01 T02420014  RH  022%=      5-min Rain = 0
KCA1 192036Z 17021KT 24/01 A2976 RMK A01 T02420014  RH  022%=      5-min Rain = 0
KCA1 192037Z 17022KT 24/01 A2976 RMK A01 T02420014  RH  022%=      5-min Rain = 0
KCA1 192038Z 17020G26KT 24/01 A2976 RMK A01 T02410013  RH  022%=      5-min Rain = 0
KCA1 192039Z 16020KT 24/01 A2976 RMK A01 T02400014  RH  023%=      5-min Rain = 0
KCA1 192040Z 17022G28KT 24/01 A2976 RMK A01 T02410013  RH  022%=      5-min Rain = 0
KCA1 192041Z 17022G28KT 24/01 A2976 RMK A01 T02410013  RH  022%=      5-min Rain = 0
KCA1 192042Z 19024G31KT 24/01 A2976 RMK A01 T02390012  RH  022%=      5-min Rain = 0
KCA1 192043Z 18020G26KT 24/01 A2976 RMK A01 T02380011  RH  023%=      5-min Rain = 0
KCA1 192044Z 17019G26KT 24/01 A2976 RMK A01 T02380013  RH  023%=      5-min Rain = 0
KCA1 192045Z 18014G21KT 24/02 A2976 RMK A01 T02410015  RH  023%=      5-min Rain = 0
KCA1 192046Z 18020G25KT 24/02 A2975 RMK A01 T02440015  RH  022%=      5-min Rain = 0
KCA1 192047Z 17021KT 24/01 A2975 RMK A01 T02430014  RH  022%=      5-min Rain = 0
KCA1 192048Z 18022KT 24/01 A2975 RMK A01 T02430014  RH  022%=      5-min Rain = 0
KCA1 192049Z 18022G27KT 24/01 A2975 RMK A01 T02420013  RH  022%=      5-min Rain = 0
KCA1 192050Z 17024KT 24/01 A2975 RMK A01 T02410012  RH  022%=      5-min Rain = 0
KCA1 192051Z 18021G27KT 24/01 A2975 RMK A01 T02410012  RH  022%=      5-min Rain = 0
KCA1 192052Z 18019KT 24/01 A2975 RMK A01 T02410012  RH  022%=      5-min Rain = 0
KCA1 192053Z 18017KT 24/01 A2975 RMK A01 T02410013  RH  022%=      5-min Rain = 0
KCA1 192054Z 18014G19KT 24/01 A2975 RMK A01 T02410013  RH  022%=      5-min Rain = 0
KCA1 192055Z 18017KT 24/01 A2975 RMK A01 T02400014  RH  023%=      5-min Rain = 0
KCA1 192056Z 17017KT 24/01 A2975 RMK A01 T02380013  RH  023%=      5-min Rain = 0
KCA1 192057Z 17020G26KT 24/01 A2975 RMK A01 T02380014  RH  023%=      5-min Rain = 0
KCA1 192058Z 17021G26KT 24/01 A2975 RMK A01 T02370014  RH  023%=      5-min Rain = 0
KCA1 192059Z 17021G28KT 24/01 A2975 RMK A01 T02370014  RH  023%=      5-min Rain = 0
KCA1 192100Z 17022G30KT 24/01 A2975 RMK A01 T02370014  RH  023%=      5-min Rain = 0
KCA1 192101Z 17024KT 24/01 A2975 RMK A01 T02370014  RH  023%=      5-min Rain = 0
KCA1 192102Z 17021G30KT 24/01 A2975 RMK A01 T02360014  RH  023%=      5-min Rain = 0
KCA1 192103Z 17023G29KT 24/01 A2975 RMK A01 T02350014  RH  023%=      5-min Rain = 0
KCA1 192104Z 18022KT 23/01 A2975 RMK A01 T02330014  RH  024%=      5-min Rain = 0
KCA1 192105Z 17019G25KT 23/01 A2975 RMK A01 T02330014  RH  024%=      5-min Rain = 0
KCA1 192106Z 18020G27KT 23/01 A2975 RMK A01 T02330014  RH  024%=      5-min Rain = 0
KCA1 192107Z 17023G28KT 23/01 A2975 RMK A01 T02320013  RH  024%=      5-min Rain = 0
KCA1 192108Z 18021KT 23/01 A2975 RMK A01 T02320013  RH  024%=      5-min Rain = 0
KCA1 192109Z 18019G24KT 23/01 A2975 RMK A01 T02330014  RH  024%=      5-min Rain = 0
KCA1 192110Z 18023G28KT 23/01 A2975 RMK A01 T02310013  RH  024%=      5-min Rain = 0
KCA1 192111Z 18019G24KT 23/01 A2975 RMK A01 T02290013  RH  024%=      5-min Rain = 0
KCA1 192112Z 18024G29KT 23/01 A2975 RMK A01 T02290014  RH  024%=      5-min Rain = 0
KCA1 192113Z 18022KT 23/01 A2975 RMK A01 T02280013  RH  024%=      5-min Rain = 0
KCA1 192114Z 18020KT 23/01 A2975 RMK A01 T02260013  RH  024%=      5-min Rain = 0
KCA1 192115Z 18020G25KT 23/01 A2975 RMK A01 T02260013  RH  025%=      5-min Rain = 0
KCA1 192116Z 18017G22KT 23/01 A2975 RMK A01 T02260013  RH  025%=      5-min Rain = 0
KCA1 192117Z 18020G25KT 23/01 A2975 RMK A01 T02260013  RH  025%=      5-min Rain = 0
KCA1 192118Z 18019KT 23/01 A2975 RMK A01 T02260014  RH  025%=      5-min Rain = 0
KCA1 192119Z 18017KT 23/02 A2975 RMK A01 T02280015  RH  025%=      5-min Rain = 0
KCA1 192120Z 18014KT 23/02 A2975 RMK A01 T02290015  RH  024%=      5-min Rain = 0
KCA1 192121Z 17015KT 23/02 A2975 RMK A01 T02310017  RH  024%=      5-min Rain = 0
KCA1 192122Z 17020G27KT 23/02 A2975 RMK A01 T02340017  RH  024%=      5-min Rain = 0
KCA1 192123Z 17021KT 24/02 A2975 RMK A01 T02350015  RH  024%=      5-min Rain = 0
KCA1 192124Z 17021KT 24/02 A2975 RMK A01 T02350016  RH  024%=      5-min Rain = 0
KCA1 192125Z 17020KT 24/02 A2975 RMK A01 T02350016  RH  024%=      5-min Rain = 0
KCA1 192126Z 17018G28KT 24/02 A2975 RMK A01 T02360016  RH  024%=      5-min Rain = 0
KCA1 192127Z 17024G30KT 24/02 A2974 RMK A01 T02360016  RH  024%=      5-min Rain = 0
KCA1 192128Z 18021G26KT 24/02 A2975 RMK A01 T02350016  RH  024%=      5-min Rain = 0
KCA1 192129Z 17020KT 24/02 A2975 RMK A01 T02360016  RH  024%=      5-min Rain = 0
KCA1 192130Z 17023KT 24/02 A2974 RMK A01 T02380016  RH  023%=      5-min Rain = 0
KCA1 192131Z 17018KT 24/02 A2974 RMK A01 T02380016  RH  023%=      5-min Rain = 0
KCA1 192132Z 17020G25KT 24/02 A2974 RMK A01 T02400017  RH  023%=      5-min Rain = 0
KCA1 192133Z 17023KT 24/02 A2974 RMK A01 T02410016  RH  023%=      5-min Rain = 0
KCA1 192134Z 18019KT 24/02 A2974 RMK A01 T02410016  RH  023%=      5-min Rain = 0
KCA1 192135Z 18017KT 24/02 A2974 RMK A01 T02410016  RH  023%=      5-min Rain = 0
KCA1 192136Z 17019G24KT 24/02 A2974 RMK A01 T02420016  RH  023%=      5-min Rain = 0
KCA1 192137Z 16020KT 24/02 A2974 RMK A01 T02430015  RH  022%=      5-min Rain = 0
KCA1 192138Z 17016G24KT 24/02 A2974 RMK A01 T02440016  RH  022%=      5-min Rain = 0
KCA1 192139Z 18020G27KT 25/02 A2974 RMK A01 T02450015  RH  022%=      5-min Rain = 0
KCA1 192140Z 17017G22KT 25/01 A2974 RMK A01 T02450014  RH  022%=      5-min Rain = 0
KCA1 192141Z 18022KT 25/01 A2974 RMK A01 T02450014  RH  022%=      5-min Rain = 0
KCA1 192142Z 17020KT 24/01 A2974 RMK A01 T02430012  RH  022%=      5-min Rain = 0
KCA1 192143Z 19017KT 24/01 A2974 RMK A01 T02430013  RH  022%=      5-min Rain = 0
KCA1 192144Z 18022G27KT 24/01 A2974 RMK A01 T02440012  RH  022%=      5-min Rain = 0
KCA1 192145Z 17021KT 24/01 A2974 RMK A01 T02420011  RH  022%=      5-min Rain = 0
KCA1 192146Z 17020KT 24/01 A2974 RMK A01 T02400011  RH  022%=      5-min Rain = 0
KCA1 192147Z 17018KT 24/01 A2974 RMK A01 T02380011  RH  022%=      5-min Rain = 0
KCA1 192148Z 18020G25KT 24/01 A2974 RMK A01 T02370011  RH  023%=      5-min Rain = 0
KCA1 192149Z 18017KT 24/01 A2975 RMK A01 T02380012  RH  023%=      5-min Rain = 0
KCA1 192150Z 18016KT 24/01 A2975 RMK A01 T02380013  RH  023%=      5-min Rain = 0
KCA1 192151Z 18017G22KT 24/01 A2975 RMK A01 T02400014  RH  023%=      5-min Rain = 0
KCA1 192152Z 17022G27KT 24/01 A2974 RMK A01 T02410014  RH  023%=      5-min Rain = 0
KCA1 192153Z 18021G26KT 24/01 A2974 RMK A01 T02390012  RH  022%=      5-min Rain = 0
KCA1 192154Z 18018G23KT 24/01 A2974 RMK A01 T02360012  RH  023%=      5-min Rain = 0
KCA1 192155Z 18019G24KT 23/01 A2974 RMK A01 T02340012  RH  023%=      5-min Rain = 0
KCA1 192156Z 18020G25KT 23/01 A2974 RMK A01 T02320012  RH  023%=      5-min Rain = 0
KCA1 192157Z 17020G26KT 23/01 A2974 RMK A01 T02320013  RH  024%=      5-min Rain = 0
KCA1 192158Z 17020KT 23/01 A2974 RMK A01 T02320013  RH  024%=      5-min Rain = 0
KCA1 192159Z 17020G25KT 23/01 A2974 RMK A01 T02330014  RH  024%=      5-min Rain = 0
KCA1 192200Z 17022G27KT 24/02 A2974 RMK A01 T02350015  RH  024%=      5-min Rain = 0
KCA1 192201Z 18023KT 24/01 A2974 RMK A01 T02350014  RH  023%=      5-min Rain = 0
KCA1 192202Z 18018KT 24/01 A2974 RMK A01 T02350014  RH  023%=      5-min Rain = 0
KCA1 192203Z 18020KT 24/02 A2974 RMK A01 T02360015  RH  023%=      5-min Rain = 0
KCA1 192204Z 18021G26KT 24/02 A2974 RMK A01 T02370015  RH  023%=      5-min Rain = 0
KCA1 192205Z 18019KT 24/01 A2974 RMK A01 T02370014  RH  023%=      5-min Rain = 0
KCA1 192206Z 17020KT 24/02 A2974 RMK A01 T02370015  RH  023%=      5-min Rain = 0
KCA1 192207Z 17017G22KT 24/02 A2974 RMK A01 T02370015  RH  023%=      5-min Rain = 0
KCA1 192208Z 16015G20KT 24/02 A2974 RMK A01 T02370016  RH  023%=      5-min Rain = 0
KCA1 192209Z 17019KT 24/02 A2974 RMK A01 T02380017  RH  023%=      5-min Rain = 0
KCA1 192210Z 18019G26KT 24/02 A2974 RMK A01 T02370017  RH  024%=      5-min Rain = 0
KCA1 192211Z 17019KT 24/02 A2974 RMK A01 T02370017  RH  024%=      5-min Rain = 0
KCA1 192212Z 17016KT 24/02 A2974 RMK A01 T02360017  RH  024%=      5-min Rain = 0
KCA1 192213Z 17018KT 24/02 A2974 RMK A01 T02370017  RH  024%=      5-min Rain = 0
KCA1 192214Z 18018G23KT 24/02 A2974 RMK A01 T02370017  RH  024%=      5-min Rain = 0
KCA1 192215Z 17016KT 24/02 A2974 RMK A01 T02360017  RH  024%=      5-min Rain = 0
KCA1 192216Z 17020KT 24/02 A2974 RMK A01 T02370017  RH  024%=      5-min Rain = 0
KCA1 192217Z 17018KT 24/02 A2974 RMK A01 T02360016  RH  024%=      5-min Rain = 0
KCA1 192218Z 17016KT 24/02 A2974 RMK A01 T02360017  RH  024%=      5-min Rain = 0
KCA1 192219Z 17016KT 24/02 A2974 RMK A01 T02360017  RH  024%=      5-min Rain = 0
KCA1 192220Z 18019G24KT 24/02 A2974 RMK A01 T02360017  RH  024%=      5-min Rain = 0
KCA1 192221Z 18018KT 24/02 A2974 RMK A01 T02370017  RH  024%=      5-min Rain = 0
KCA1 192222Z 17017KT 24/02 A2974 RMK A01 T02370017  RH  024%=      5-min Rain = 0
KCA1 192223Z 17022G27KT 24/02 A2974 RMK A01 T02360017  RH  024%=      5-min Rain = 0
KCA1 192224Z 17019KT 24/02 A2974 RMK A01 T02360016  RH  024%=      5-min Rain = 0
KCA1 192225Z 16021KT 24/02 A2974 RMK A01 T02350015  RH  024%=      5-min Rain = 0
KCA1 192226Z 17018KT 23/02 A2974 RMK A01 T02340015  RH  024%=      5-min Rain = 0
KCA1 192227Z 17017KT 23/02 A2974 RMK A01 T02340016  RH  024%=      5-min Rain = 0
KCA1 192228Z 17018G23KT 23/02 A2974 RMK A01 T02340016  RH  024%=      5-min Rain = 0
KCA1 192229Z 17015KT 23/02 A2974 RMK A01 T02330016  RH  024%=      5-min Rain = 0
KCA1 192230Z 17013KT 23/02 A2974 RMK A01 T02330016  RH  024%=      5-min Rain = 0
KCA1 192231Z 17016G21KT 23/02 A2974 RMK A01 T02330016  RH  024%=      5-min Rain = 0
KCA1 192232Z 18016G22KT 23/02 A2974 RMK A01 T02330016  RH  024%=      5-min Rain = 0
KCA1 192233Z 18017KT 23/02 A2974 RMK A01 T02330016  RH  024%=      5-min Rain = 0
KCA1 192234Z 18018G23KT 23/02 A2974 RMK A01 T02330016  RH  024%=      5-min Rain = 0
KCA1 192235Z 18018G23KT 23/02 A2974 RMK A01 T02320016  RH  024%=      5-min Rain = 0
KCA1 192236Z 17019KT 23/02 A2974 RMK A01 T02310016  RH  024%=      5-min Rain = 0
KCA1 192237Z 17016KT 23/02 A2974 RMK A01 T02310016  RH  024%=      5-min Rain = 0
KCA1 192238Z 17016KT 23/02 A2974 RMK A01 T02300017  RH  024%=      5-min Rain = 0
KCA1 192239Z 18015KT 23/02 A2974 RMK A01 T02300017  RH  025%=      5-min Rain = 0
KCA1 192240Z 17018KT 23/02 A2974 RMK A01 T02300017  RH  025%=      5-min Rain = 0
KCA1 192241Z 17019KT 23/02 A2974 RMK A01 T02290016  RH  025%=      5-min Rain = 0
KCA1 192242Z 17019G24KT 23/02 A2974 RMK A01 T02290017  RH  025%=      5-min Rain = 0
KCA1 192243Z 17018KT 23/02 A2974 RMK A01 T02280017  RH  025%=      5-min Rain = 0
KCA1 192244Z 17017G23KT 23/02 A2974 RMK A01 T02280017  RH  025%=      5-min Rain = 0
KCA1 192245Z 17017G23KT 23/02 A2974 RMK A01 T02270018  RH  025%=      5-min Rain = 0
KCA1 192246Z 17020KT 23/02 A2974 RMK A01 T02270018  RH  025%=      5-min Rain = 0
KCA1 192247Z 17018G23KT 23/02 A2974 RMK A01 T02270018  RH  025%=      5-min Rain = 0
KCA1 192248Z 17016KT 23/02 A2974 RMK A01 T02260018  RH  025%=      5-min Rain = 0
KCA1 192249Z 17014KT 23/02 A2974 RMK A01 T02260019  RH  025%=      5-min Rain = 0
KCA1 192250Z 17012KT 23/02 A2974 RMK A01 T02260019  RH  026%=      5-min Rain = 0
KCA1 192251Z 16014KT 23/02 A2974 RMK A01 T02250019  RH  026%=      5-min Rain = 0
KCA1 192252Z 17016KT 22/02 A2974 RMK A01 T02240019  RH  026%=      5-min Rain = 0
KCA1 192253Z 16016KT 22/02 A2974 RMK A01 T02230020  RH  026%=      5-min Rain = 0
KCA1 192254Z 17015KT 22/02 A2974 RMK A01 T02230020  RH  026%=      5-min Rain = 0
KCA1 192255Z 17014KT 22/02 A2974 RMK A01 T02220021  RH  027%=      5-min Rain = 0
KCA1 192256Z 17014KT 22/02 A2974 RMK A01 T02220021  RH  027%=      5-min Rain = 0
KCA1 192257Z 17015G20KT 22/02 A2974 RMK A01 T02210021  RH  027%=      5-min Rain = 0
KCA1 192258Z 16014KT 22/02 A2974 RMK A01 T02210022  RH  027%=      5-min Rain = 0
KCA1 192259Z 17013KT 22/02 A2974 RMK A01 T02200022  RH  027%=      5-min Rain = 0
KCA1 192300Z 17014KT 22/02 A2974 RMK A01 T02190022  RH  027%=      5-min Rain = 0
KCA1 192301Z 17014G19KT 22/02 A2974 RMK A01 T02180023  RH  028%=      5-min Rain = 0
KCA1 192302Z 16013KT 22/02 A2974 RMK A01 T02180023  RH  028%=      5-min Rain = 0
KCA1 192303Z 16012KT 22/02 A2974 RMK A01 T02160023  RH  028%=      5-min Rain = 0
KCA1 192304Z 16013KT 22/02 A2974 RMK A01 T02160023  RH  028%=      5-min Rain = 0
KCA1 192305Z 16012KT 22/02 A2974 RMK A01 T02150023  RH  028%=      5-min Rain = 0
KCA1 192306Z 16014KT 21/02 A2974 RMK A01 T02140023  RH  028%=      5-min Rain = 0
KCA1 192307Z 16014G19KT 21/02 A2974 RMK A01 T02140024  RH  028%=      5-min Rain = 0
KCA1 192308Z 16014KT 21/02 A2974 RMK A01 T02140024  RH  028%=      5-min Rain = 0
KCA1 192309Z 16012KT 21/02 A2974 RMK A01 T02140024  RH  029%=      5-min Rain = 0
KCA1 192310Z 16012KT 21/02 A2974 RMK A01 T02130024  RH  029%=      5-min Rain = 0
KCA1 192311Z 16012KT 21/02 A2974 RMK A01 T02120024  RH  029%=      5-min Rain = 0
KCA1 192312Z 16011KT 21/02 A2974 RMK A01 T02110024  RH  029%=      5-min Rain = 0
KCA1 192313Z 16010KT 21/02 A2974 RMK A01 T02100024  RH  029%=      5-min Rain = 0
KCA1 192314Z 16012KT 21/03 A2974 RMK A01 T02090025  RH  029%=      5-min Rain = 0
KCA1 192315Z 15013KT 21/03 A2974 RMK A01 T02080025  RH  030%=      5-min Rain = 0
KCA1 192316Z 16012KT 21/03 A2974 RMK A01 T02080025  RH  030%=      5-min Rain = 0
KCA1 192317Z 16012KT 21/03 A2974 RMK A01 T02080025  RH  030%=      5-min Rain = 0
KCA1 192318Z 15011KT 21/03 A2974 RMK A01 T02070025  RH  030%=      5-min Rain = 0
KCA1 192319Z 16012KT 21/03 A2974 RMK A01 T02070025  RH  030%=      5-min Rain = 0
KCA1 192320Z 15012KT 21/03 A2974 RMK A01 T02060025  RH  030%=      5-min Rain = 0
KCA1 192321Z 15012KT 21/03 A2974 RMK A01 T02060026  RH  030%=      5-min Rain = 0
KCA1 192322Z 16011KT 21/03 A2974 RMK A01 T02050026  RH  031%=      5-min Rain = 0
KCA1 192323Z 16012KT 20/03 A2974 RMK A01 T02040025  RH  031%=      5-min Rain = 0
KCA1 192324Z 15010KT 20/03 A2974 RMK A01 T02040026  RH  031%=      5-min Rain = 0
KCA1 192325Z 15010KT 20/03 A2974 RMK A01 T02030026  RH  031%=      5-min Rain = 0
KCA1 192326Z 15012KT 20/03 A2974 RMK A01 T02010026  RH  031%=      5-min Rain = 0
KCA1 192327Z 15011KT 20/03 A2974 RMK A01 T02010026  RH  031%=      5-min Rain = 0
KCA1 192328Z 16011KT 20/03 A2974 RMK A01 T02000026  RH  031%=      5-min Rain = 0
KCA1 192329Z 16011KT 20/03 A2974 RMK A01 T02000026  RH  032%=      5-min Rain = 0
KCA1 192330Z 15010KT 20/03 A2974 RMK A01 T01990026  RH  032%=      5-min Rain = 0
KCA1 192331Z 15011KT 20/03 A2974 RMK A01 T01980026  RH  032%=      5-min Rain = 0
KCA1 192332Z 15011KT 20/03 A2974 RMK A01 T01970026  RH  032%=      5-min Rain = 0
KCA1 192333Z 15011KT 20/03 A2974 RMK A01 T01960026  RH  032%=      5-min Rain = 0
KCA1 192334Z 15011KT 20/03 A2974 RMK A01 T01960026  RH  032%=      5-min Rain = 0
KCA1 192335Z 15011KT 20/03 A2974 RMK A01 T01950026  RH  032%=      5-min Rain = 0
KCA1 192336Z 14010KT 20/03 A2974 RMK A01 T01950026  RH  033%=      5-min Rain = 0
KCA1 192337Z 14010KT 19/03 A2974 RMK A01 T01930025  RH  033%=      5-min Rain = 0
KCA1 192338Z 15010KT 19/03 A2974 RMK A01 T01920025  RH  033%=      5-min Rain = 0
KCA1 192339Z 15010KT 19/03 A2974 RMK A01 T01920026  RH  033%=      5-min Rain = 0
KCA1 192340Z 14010KT 19/03 A2974 RMK A01 T01910026  RH  033%=      5-min Rain = 0
KCA1 192341Z 14011KT 19/03 A2974 RMK A01 T01910026  RH  033%=      5-min Rain = 0
KCA1 192342Z 14012KT 19/03 A2974 RMK A01 T01910026  RH  033%=      5-min Rain = 0
KCA1 192343Z 14011KT 19/03 A2974 RMK A01 T01910026  RH  033%=      5-min Rain = 0
KCA1 192344Z 13011KT 19/03 A2974 RMK A01 T01910026  RH  033%=      5-min Rain = 0
KCA1 192345Z 13010KT 19/03 A2974 RMK A01 T01900026  RH  033%=      5-min Rain = 0
KCA1 192346Z 13011KT 19/03 A2974 RMK A01 T01890026  RH  034%=      5-min Rain = 0
KCA1 192347Z 13011KT 19/03 A2974 RMK A01 T01890026  RH  034%=      5-min Rain = 0
KCA1 192348Z 14011KT 19/03 A2974 RMK A01 T01880026  RH  034%=      5-min Rain = 0
KCA1 192349Z 13010KT 19/03 A2974 RMK A01 T01870026  RH  034%=      5-min Rain = 0
KCA1 192350Z 13010KT 19/03 A2974 RMK A01 T01860026  RH  034%=      5-min Rain = 0
KCA1 192351Z 13010KT 19/03 A2974 RMK A01 T01850026  RH  035%=      5-min Rain = 0
KCA1 192352Z 13010KT 18/03 A2974 RMK A01 T01840026  RH  035%=      5-min Rain = 0
KCA1 192353Z 13010KT 18/03 A2974 RMK A01 T01830026  RH  035%=      5-min Rain = 0
KCA1 192354Z 13011KT 18/03 A2974 RMK A01 T01830026  RH  035%=      5-min Rain = 0
KCA1 192355Z 13011KT 18/03 A2974 RMK A01 T01830027  RH  035%=      5-min Rain = 0
KCA1 192356Z 13011KT 18/03 A2974 RMK A01 T01820027  RH  035%=      5-min Rain = 0
KCA1 192357Z 13012KT 18/03 A2974 RMK A01 T01820027  RH  036%=      5-min Rain = 0
KCA1 192358Z 14011KT 18/03 A2974 RMK A01 T01830028  RH  036%=      5-min Rain = 0
KCA1 192359Z 14011KT 18/03 A2974 RMK A01 T01820028  RH  036%=      5-min Rain = 0
KCA1 200000Z 14011KT 18/03 A2974 RMK A01 T01820028  RH  036%=      5-min Rain = 0
KCA1 200001Z 14011KT 18/03 A2974 RMK A01 T01810028  RH  036%=      5-min Rain = 0
KCA1 200002Z 13011KT 18/03 A2974 RMK A01 T01800028  RH  036%=      5-min Rain = 0
KCA1 200003Z 14011KT 18/03 A2974 RMK A01 T01800028  RH  036%=      5-min Rain = 0
KCA1 200004Z 13011KT 18/03 A2974 RMK A01 T01800029  RH  036%=      5-min Rain = 0
KCA1 200005Z 13012KT 18/03 A2974 RMK A01 T01790028  RH  037%=      5-min Rain = 0
KCA1 200006Z 14011KT 18/03 A2974 RMK A01 T01790029  RH  037%=      5-min Rain = 0
KCA1 200007Z 13012KT 18/03 A2974 RMK A01 T01780029  RH  037%=      5-min Rain = 0
KCA1 200008Z 13011KT 18/03 A2974 RMK A01 T01770029  RH  037%=      5-min Rain = 0
KCA1 200009Z 13012KT 18/03 A2974 RMK A01 T01760029  RH  037%=      5-min Rain = 0
KCA1 200010Z 13011KT 18/03 A2974 RMK A01 T01750029  RH  038%=      5-min Rain = 0
KCA1 200011Z 13012KT 18/03 A2974 RMK A01 T01750030  RH  038%=      5-min Rain = 0
KCA1 200012Z 14012KT 18/03 A2974 RMK A01 T01750029  RH  038%=      5-min Rain = 0
KCA1 200013Z 14011KT 18/03 A2974 RMK A01 T01750029  RH  038%=      5-min Rain = 0
KCA1 200014Z 14011KT 17/03 A2974 RMK A01 T01740029  RH  038%=      5-min Rain = 0
KCA1 200015Z 13012KT 17/03 A2974 RMK A01 T01730030  RH  038%=      5-min Rain = 0
KCA1 200016Z 13011KT 17/03 A2974 RMK A01 T01730030  RH  038%=      5-min Rain = 0
KCA1 200017Z 13011KT 17/03 A2974 RMK A01 T01730030  RH  038%=      5-min Rain = 0
KCA1 200018Z 13012KT 17/03 A2974 RMK A01 T01720030  RH  038%=      5-min Rain = 0
KCA1 200019Z 13011KT 17/03 A2974 RMK A01 T01720030  RH  039%=      5-min Rain = 0
KCA1 200020Z 14011KT 17/03 A2974 RMK A01 T01710030  RH  039%=      5-min Rain = 0
KCA1 200021Z 14012KT 17/03 A2974 RMK A01 T01700030  RH  039%=      5-min Rain = 0
KCA1 200022Z 14012KT 17/03 A2974 RMK A01 T01690030  RH  039%=      5-min Rain = 0
KCA1 200023Z 14012KT 17/03 A2974 RMK A01 T01690030  RH  039%=      5-min Rain = 0
KCA1 200024Z 14013KT 17/03 A2974 RMK A01 T01680030  RH  040%=      5-min Rain = 0
KCA1 200025Z 14013KT 17/03 A2974 RMK A01 T01680030  RH  040%=      5-min Rain = 0
KCA1 200026Z 14013KT 17/03 A2974 RMK A01 T01690030  RH  040%=      5-min Rain = 0
KCA1 200027Z 14012KT 17/03 A2974 RMK A01 T01690030  RH  039%=      5-min Rain = 0
KCA1 200028Z 14013KT 17/03 A2974 RMK A01 T01690030  RH  039%=      5-min Rain = 0
KCA1 200029Z 14012KT 17/03 A2974 RMK A01 T01690030  RH  039%=      5-min Rain = 0
KCA1 200030Z 14012KT 17/03 A2974 RMK A01 T01700031  RH  039%=      5-min Rain = 0
KCA1 200031Z 14012KT 17/03 A2974 RMK A01 T01690030  RH  039%=      5-min Rain = 0
KCA1 200032Z 14013KT 17/03 A2974 RMK A01 T01690031  RH  040%=      5-min Rain = 0
KCA1 200033Z 14012KT 17/03 A2974 RMK A01 T01680031  RH  040%=      5-min Rain = 0
KCA1 200034Z 14014KT 17/03 A2974 RMK A01 T01680031  RH  040%=      5-min Rain = 0
KCA1 200035Z 14013KT 17/03 A2974 RMK A01 T01680031  RH  040%=      5-min Rain = 0
KCA1 200036Z 14012KT 17/03 A2974 RMK A01 T01690031  RH  040%=      5-min Rain = 0
KCA1 200037Z 15012KT 17/03 A2974 RMK A01 T01690031  RH  040%=      5-min Rain = 0
KCA1 200038Z 14012KT 17/03 A2974 RMK A01 T01690032  RH  040%=      5-min Rain = 0
KCA1 200039Z 14013KT 17/03 A2974 RMK A01 T01690032  RH  040%=      5-min Rain = 0
KCA1 200040Z 14013KT 17/03 A2975 RMK A01 T01690032  RH  040%=      5-min Rain = 0
KCA1 200041Z 14012KT 17/03 A2975 RMK A01 T01690032  RH  040%=      5-min Rain = 0
KCA1 200042Z 14013KT 17/03 A2975 RMK A01 T01680032  RH  040%=      5-min Rain = 0
KCA1 200043Z 14014KT 17/03 A2975 RMK A01 T01680032  RH  040%=      5-min Rain = 0
KCA1 200044Z 14014KT 17/03 A2975 RMK A01 T01680032  RH  040%=      5-min Rain = 0
KCA1 200045Z 14013KT 17/03 A2975 RMK A01 T01680032  RH  040%=      5-min Rain = 0
KCA1 200046Z 14013KT 17/03 A2975 RMK A01 T01680032  RH  040%=      5-min Rain = 0
KCA1 200047Z 14013KT 17/03 A2975 RMK A01 T01680032  RH  040%=      5-min Rain = 0
KCA1 200048Z 14013KT 17/03 A2975 RMK A01 T01690033  RH  040%=      5-min Rain = 0
KCA1 200049Z 14012KT 17/03 A2975 RMK A01 T01690033  RH  040%=      5-min Rain = 0
KCA1 200050Z 15013KT 17/03 A2975 RMK A01 T01680033  RH  040%=      5-min Rain = 0
KCA1 200051Z 14014KT 17/03 A2975 RMK A01 T01680034  RH  041%=      5-min Rain = 0
KCA1 200052Z 14013KT 17/03 A2975 RMK A01 T01680034  RH  041%=      5-min Rain = 0
KCA1 200053Z 14013KT 17/04 A2975 RMK A01 T01690035  RH  041%=      5-min Rain = 0
KCA1 200054Z 14013KT 17/04 A2975 RMK A01 T01690035  RH  041%=      5-min Rain = 0
KCA1 200055Z 14012KT 17/04 A2975 RMK A01 T01690035  RH  041%=      5-min Rain = 0
KCA1 200056Z 15012KT 17/04 A2975 RMK A01 T01690035  RH  041%=      5-min Rain = 0
KCA1 200057Z 15012KT 17/04 A2975 RMK A01 T01680036  RH  041%=      5-min Rain = 0
KCA1 200058Z 15014KT 17/04 A2975 RMK A01 T01680036  RH  041%=      5-min Rain = 0
KCA1 200059Z 15012KT 17/04 A2975 RMK A01 T01690037  RH  041%=      5-min Rain = 0
KCA1 200100Z 15011KT 17/04 A2975 RMK A01 T01700037  RH  041%=      5-min Rain = 0
KCA1 200101Z 15012KT 17/04 A2975 RMK A01 T01680037  RH  042%=      5-min Rain = 0
KCA1 200102Z 15012KT 17/04 A2975 RMK A01 T01680038  RH  042%=      5-min Rain = 0
KCA1 200103Z 15011KT 17/04 A2975 RMK A01 T01680038  RH  042%=      5-min Rain = 0
KCA1 200104Z 15010KT 17/04 A2975 RMK A01 T01680038  RH  042%=      5-min Rain = 0
KCA1 200105Z 15011KT 17/04 A2975 RMK A01 T01680039  RH  042%=      5-min Rain = 0
KCA1 200106Z 15011KT 17/04 A2975 RMK A01 T01680039  RH  042%=      5-min Rain = 0
KCA1 200107Z 14011KT 17/04 A2975 RMK A01 T01680040  RH  042%=      5-min Rain = 0
KCA1 200108Z 15011KT 17/04 A2975 RMK A01 T01680040  RH  042%=      5-min Rain = 0
KCA1 200109Z 15011KT 17/04 A2975 RMK A01 T01680040  RH  043%=      5-min Rain = 0
KCA1 200110Z 15012KT 17/04 A2975 RMK A01 T01690041  RH  043%=      5-min Rain = 0
KCA1 200111Z 15013KT 17/04 A2975 RMK A01 T01690041  RH  042%=      5-min Rain = 0
KCA1 200112Z 15013KT 17/04 A2975 RMK A01 T01700041  RH  042%=      5-min Rain = 0
KCA1 200113Z 15013KT 17/04 A2975 RMK A01 T01700041  RH  042%=      5-min Rain = 0
KCA1 200114Z 15013KT 17/04 A2975 RMK A01 T01700041  RH  042%=      5-min Rain = 0
KCA1 200115Z 15012KT 17/04 A2975 RMK A01 T01700042  RH  042%=      5-min Rain = 0
KCA1 200116Z 15015KT 17/04 A2975 RMK A01 T01700042  RH  043%=      5-min Rain = 0
KCA1 200117Z 15012KT 17/04 A2975 RMK A01 T01710042  RH  042%=      5-min Rain = 0
KCA1 200118Z 15014KT 17/04 A2975 RMK A01 T01710042  RH  042%=      5-min Rain = 0
KCA1 200119Z 15013KT 17/04 A2975 RMK A01 T01710043  RH  042%=      5-min Rain = 0
KCA1 200120Z 15014KT 17/04 A2975 RMK A01 T01710043  RH  043%=      5-min Rain = 0
KCA1 200121Z 15015KT 17/04 A2975 RMK A01 T01710042  RH  043%=      5-min Rain = 0
KCA1 200122Z 15014KT 17/04 A2975 RMK A01 T01720043  RH  042%=      5-min Rain = 0
KCA1 200123Z 15014KT 17/04 A2975 RMK A01 T01720043  RH  042%=      5-min Rain = 0
KCA1 200124Z 15016KT 17/04 A2975 RMK A01 T01720043  RH  042%=      5-min Rain = 0
KCA1 200125Z 15012KT 17/04 A2975 RMK A01 T01720044  RH  042%=      5-min Rain = 0
KCA1 200126Z 15015KT 17/04 A2975 RMK A01 T01720043  RH  043%=      5-min Rain = 0
KCA1 200127Z 15013KT 17/04 A2975 RMK A01 T01710043  RH  043%=      5-min Rain = 0
KCA1 200128Z 15017KT 17/04 A2975 RMK A01 T01710043  RH  043%=      5-min Rain = 0
KCA1 200129Z 15015KT 17/04 A2975 RMK A01 T01720044  RH  043%=      5-min Rain = 0
KCA1 200130Z 15013KT 17/04 A2976 RMK A01 T01720044  RH  043%=      5-min Rain = 0
KCA1 200131Z 15015KT 17/04 A2976 RMK A01 T01720044  RH  043%=      5-min Rain = 0
KCA1 200132Z 15014KT 17/04 A2976 RMK A01 T01720044  RH  043%=      5-min Rain = 0
KCA1 200133Z 16014G19KT 17/04 A2976 RMK A01 T01720044  RH  043%=      5-min Rain = 0
KCA1 200134Z 15014KT 17/04 A2976 RMK A01 T01710044  RH  043%=      5-min Rain = 0
KCA1 200135Z 16014KT 17/05 A2976 RMK A01 T01720045  RH  043%=      5-min Rain = 0
KCA1 200136Z 16014KT 17/05 A2976 RMK A01 T01710045  RH  043%=      5-min Rain = 0
KCA1 200137Z 15014KT 17/05 A2976 RMK A01 T01710045  RH  043%=      5-min Rain = 0
KCA1 200138Z 16016KT 17/05 A2975 RMK A01 T01710045  RH  043%=      5-min Rain = 0
KCA1 200139Z 16013KT 17/05 A2976 RMK A01 T01710045  RH  043%=      5-min Rain = 0
KCA1 200140Z 15015KT 17/05 A2975 RMK A01 T01720046  RH  043%=      5-min Rain = 0
KCA1 200141Z 16016KT 17/05 A2975 RMK A01 T01710046  RH  043%=      5-min Rain = 0
KCA1 200142Z 16014KT 17/05 A2976 RMK A01 T01700046  RH  044%=      5-min Rain = 0
KCA1 200143Z 15015KT 17/05 A2975 RMK A01 T01710046  RH  044%=      5-min Rain = 0
KCA1 200144Z 16014KT 17/05 A2976 RMK A01 T01710046  RH  044%=      5-min Rain = 0
KCA1 200145Z 15012KT 17/05 A2976 RMK A01 T01700046  RH  044%=      5-min Rain = 0
KCA1 200146Z 15015KT 17/05 A2976 RMK A01 T01690046  RH  044%=      5-min Rain = 0
KCA1 200147Z 16015G21KT 17/05 A2975 RMK A01 T01690046  RH  044%=      5-min Rain = 0
KCA1 200148Z 16015KT 17/05 A2975 RMK A01 T01690047  RH  044%=      5-min Rain = 0
KCA1 200149Z 15017KT 17/05 A2975 RMK A01 T01700047  RH  044%=      5-min Rain = 0
KCA1 200150Z 15015G20KT 17/05 A2975 RMK A01 T01700047  RH  044%=      5-min Rain = 0
KCA1 200151Z 16014KT 17/05 A2976 RMK A01 T01700047  RH  044%=      5-min Rain = 0
KCA1 200152Z 15015KT 17/05 A2976 RMK A01 T01700048  RH  044%=      5-min Rain = 0
KCA1 200153Z 16015KT 17/05 A2976 RMK A01 T01700048  RH  044%=      5-min Rain = 0
KCA1 200154Z 15017G22KT 17/05 A2975 RMK A01 T01690048  RH  045%=      5-min Rain = 0
KCA1 200155Z 16016KT 17/05 A2975 RMK A01 T01690048  RH  045%=      5-min Rain = 0
KCA1 200156Z 16016KT 17/05 A2975 RMK A01 T01690048  RH  045%=      5-min Rain = 0
KCA1 200157Z 16017G23KT 17/05 A2975 RMK A01 T01690048  RH  045%=      5-min Rain = 0
KCA1 200158Z 16017KT 17/05 A2975 RMK A01 T01690048  RH  045%=      5-min Rain = 0
KCA1 200159Z 16016KT 17/05 A2975 RMK A01 T01690048  RH  045%=      5-min Rain = 0
KCA1 200200Z 16015KT 17/05 A2975 RMK A01 T01690048  RH  045%=      5-min Rain = 0
KCA1 200201Z 16017KT 17/05 A2975 RMK A01 T01680048  RH  045%=      5-min Rain = 0
KCA1 200202Z 16017KT 17/05 A2975 RMK A01 T01680048  RH  045%=      5-min Rain = 0
KCA1 200203Z 16016KT 17/05 A2975 RMK A01 T01680049  RH  045%=      5-min Rain = 0
KCA1 200204Z 16017KT 17/05 A2975 RMK A01 T01680048  RH  045%=      5-min Rain = 0
KCA1 200205Z 16016G21KT 17/05 A2975 RMK A01 T01670048  RH  045%=      5-min Rain = 0
KCA1 200206Z 16017KT 17/05 A2975 RMK A01 T01670048  RH  045%=      5-min Rain = 0
KCA1 200207Z 16016KT 17/05 A2975 RMK A01 T01670049  RH  045%=      5-min Rain = 0
KCA1 200208Z 16017KT 17/05 A2975 RMK A01 T01670049  RH  045%=      5-min Rain = 0
KCA1 200209Z 16018KT 17/05 A2975 RMK A01 T01680049  RH  045%=      5-min Rain = 0
KCA1 200210Z 16015KT 17/05 A2975 RMK A01 T01670048  RH  045%=      5-min Rain = 0
KCA1 200211Z 16015KT 17/05 A2975 RMK A01 T01670049  RH  045%=      5-min Rain = 0
KCA1 200212Z 16016KT 17/05 A2975 RMK A01 T01660049  RH  046%=      5-min Rain = 0
KCA1 200213Z 16015KT 17/05 A2975 RMK A01 T01670049  RH  046%=      5-min Rain = 0
KCA1 200214Z 16016KT 17/05 A2975 RMK A01 T01660049  RH  046%=      5-min Rain = 0
KCA1 200215Z 16015KT 17/05 A2975 RMK A01 T01660049  RH  046%=      5-min Rain = 0
KCA1 200216Z 16013KT 17/05 A2975 RMK A01 T01660049  RH  046%=      5-min Rain = 0
KCA1 200217Z 16015KT 17/05 A2975 RMK A01 T01650049  RH  046%=      5-min Rain = 0
KCA1 200218Z 16016KT 17/05 A2975 RMK A01 T01650049  RH  046%=      5-min Rain = 0
KCA1 200219Z 16015G22KT 16/05 A2975 RMK A01 T01640049  RH  046%=      5-min Rain = 0
KCA1 200220Z 16016KT 17/05 A2975 RMK A01 T01650049  RH  046%=      5-min Rain = 0
KCA1 200221Z 16016G21KT 17/05 A2975 RMK A01 T01650049  RH  046%=      5-min Rain = 0
KCA1 200222Z 15016KT 17/05 A2975 RMK A01 T01650049  RH  046%=      5-min Rain = 0
KCA1 200223Z 16016KT 17/05 A2975 RMK A01 T01650049  RH  046%=      5-min Rain = 0
KCA1 200224Z 16016KT 17/05 A2975 RMK A01 T01650049  RH  046%=      5-min Rain = 0
KCA1 200225Z 16016G21KT 17/05 A2975 RMK A01 T01650049  RH  046%=      5-min Rain = 0
KCA1 200226Z 16016G21KT 16/05 A2975 RMK A01 T01640049  RH  046%=      5-min Rain = 0
KCA1 200227Z 16016KT 16/05 A2975 RMK A01 T01640049  RH  046%=      5-min Rain = 0
KCA1 200228Z 16017KT 16/05 A2975 RMK A01 T01640049  RH  046%=      5-min Rain = 0
KCA1 200229Z 16018KT 16/05 A2975 RMK A01 T01640049  RH  046%=      5-min Rain = 0
KCA1 200230Z 15016G22KT 16/05 A2975 RMK A01 T01640048  RH  046%=      5-min Rain = 0
KCA1 200231Z 16015G21KT 16/05 A2975 RMK A01 T01640049  RH  046%=      5-min Rain = 0
KCA1 200232Z 16018KT 16/05 A2975 RMK A01 T01640048  RH  046%=      5-min Rain = 0
KCA1 200233Z 16017KT 16/05 A2975 RMK A01 T01640049  RH  046%=      5-min Rain = 0
KCA1 200234Z 16018KT 16/05 A2975 RMK A01 T01640049  RH  046%=      5-min Rain = 0
KCA1 200235Z 16018KT 16/05 A2975 RMK A01 T01640049  RH  046%=      5-min Rain = 0
KCA1 200236Z 16018G23KT 16/05 A2975 RMK A01 T01640048  RH  046%=      5-min Rain = 0
KCA1 200237Z 16016KT 16/05 A2975 RMK A01 T01640049  RH  046%=      5-min Rain = 0
KCA1 200238Z 15019G24KT 16/05 A2975 RMK A01 T01640048  RH  046%=      5-min Rain = 0
KCA1 200239Z 15017KT 16/05 A2975 RMK A01 T01640048  RH  046%=      5-min Rain = 0
KCA1 200240Z 16017KT 16/05 A2975 RMK A01 T01630049  RH  046%=      5-min Rain = 0
KCA1 200241Z 16016G21KT 16/05 A2975 RMK A01 T01630048  RH  047%=      5-min Rain = 0
KCA1 200242Z 16017KT 16/05 A2975 RMK A01 T01630049  RH  047%=      5-min Rain = 0
KCA1 200243Z 15016G22KT 16/05 A2975 RMK A01 T01620048  RH  047%=      5-min Rain = 0
KCA1 200244Z 16017KT 16/05 A2975 RMK A01 T01620048  RH  047%=      5-min Rain = 0
KCA1 200245Z 16014KT 16/05 A2975 RMK A01 T01610048  RH  047%=      5-min Rain = 0
KCA1 200246Z 16014KT 16/05 A2975 RMK A01 T01610048  RH  047%=      5-min Rain = 0
KCA1 200247Z 15017KT 16/05 A2975 RMK A01 T01600048  RH  047%=      5-min Rain = 0
KCA1 200248Z 16015KT 16/05 A2975 RMK A01 T01600048  RH  047%=      5-min Rain = 0
KCA1 200249Z 16017KT 16/05 A2975 RMK A01 T01600048  RH  047%=      5-min Rain = 0
KCA1 200250Z 15017KT 16/05 A2975 RMK A01 T01600048  RH  047%=      5-min Rain = 0
KCA1 200251Z 16014KT 16/05 A2975 RMK A01 T01600048  RH  047%=      5-min Rain = 0
KCA1 200252Z 15016G21KT 16/05 A2975 RMK A01 T01600048  RH  047%=      5-min Rain = 0
KCA1 200253Z 16016KT 16/05 A2975 RMK A01 T01600048  RH  047%=      5-min Rain = 0
KCA1 200254Z 16016KT 16/05 A2975 RMK A01 T01590048  RH  047%=      5-min Rain = 0
KCA1 200255Z 16015KT 16/05 A2975 RMK A01 T01590048  RH  047%=      5-min Rain = 0
KCA1 200256Z 15016KT 16/05 A2975 RMK A01 T01600048  RH  047%=      5-min Rain = 0
KCA1 200257Z 15017G22KT 16/05 A2975 RMK A01 T01600048  RH  047%=      5-min Rain = 0
KCA1 200258Z 16016KT 16/05 A2975 RMK A01 T01600048  RH  047%=      5-min Rain = 0
KCA1 200259Z 16015KT 16/05 A2975 RMK A01 T01590047  RH  047%=      5-min Rain = 0
KCA1 200300Z 16016KT 16/05 A2975 RMK A01 T01590047  RH  047%=      5-min Rain = 0
KCA1 200301Z 16016KT 16/05 A2975 RMK A01 T01590047  RH  047%=      5-min Rain = 0
KCA1 200302Z 16016KT 16/05 A2975 RMK A01 T01590047  RH  047%=      5-min Rain = 0
KCA1 200303Z 16017KT 16/05 A2975 RMK A01 T01590047  RH  047%=      5-min Rain = 0
KCA1 200304Z 16015KT 16/05 A2975 RMK A01 T01590047  RH  047%=      5-min Rain = 0
KCA1 200305Z 16016G21KT 16/05 A2975 RMK A01 T01590047  RH  047%=      5-min Rain = 0
KCA1 200306Z 16016KT 16/05 A2975 RMK A01 T01590047  RH  047%=      5-min Rain = 0
KCA1 200307Z 16017KT 16/05 A2975 RMK A01 T01590047  RH  047%=      5-min Rain = 0
KCA1 200308Z 16016KT 16/05 A2975 RMK A01 T01580047  RH  047%=      5-min Rain = 0
KCA1 200309Z 16016KT 16/05 A2975 RMK A01 T01590047  RH  047%=      5-min Rain = 0
KCA1 200310Z 16017G22KT 16/05 A2975 RMK A01 T01590047  RH  047%=      5-min Rain = 0
KCA1 200311Z 16016KT 16/05 A2975 RMK A01 T01580046  RH  047%=      5-min Rain = 0
KCA1 200312Z 16016G21KT 16/05 A2975 RMK A01 T01580046  RH  047%=      5-min Rain = 0
KCA1 200313Z 16016KT 16/05 A2975 RMK A01 T01580047  RH  047%=      5-min Rain = 0
KCA1 200314Z 16016KT 16/05 A2975 RMK A01 T01580046  RH  047%=      5-min Rain = 0
KCA1 200315Z 16016KT 16/05 A2975 RMK A01 T01570046  RH  048%=      5-min Rain = 0
KCA1 200316Z 16017KT 16/05 A2975 RMK A01 T01570046  RH  047%=      5-min Rain = 0
KCA1 200317Z 16017KT 16/05 A2975 RMK A01 T01570046  RH  047%=      5-min Rain = 0
KCA1 200318Z 16014G19KT 16/05 A2975 RMK A01 T01570046  RH  047%=      5-min Rain = 0
KCA1 200319Z 15015G21KT 16/05 A2975 RMK A01 T01570046  RH  048%=      5-min Rain = 0
KCA1 200320Z 16015KT 16/05 A2975 RMK A01 T01560045  RH  048%=      5-min Rain = 0
KCA1 200321Z 16015G20KT 16/05 A2975 RMK A01 T01550045  RH  048%=      5-min Rain = 0
KCA1 200322Z 15017KT 16/05 A2975 RMK A01 T01550045  RH  048%=      5-min Rain = 0
KCA1 200323Z 16018KT 16/05 A2975 RMK A01 T01560045  RH  048%=      5-min Rain = 0
KCA1 200324Z 16017KT 16/05 A2975 RMK A01 T01560045  RH  048%=      5-min Rain = 0
KCA1 200325Z 16017KT 16/05 A2975 RMK A01 T01560045  RH  047%=      5-min Rain = 0
KCA1 200326Z 16019G24KT 16/05 A2975 RMK A01 T01560045  RH  048%=      5-min Rain = 0
KCA1 200327Z 15015G20KT 16/05 A2975 RMK A01 T01560045  RH  048%=      5-min Rain = 0
KCA1 200328Z 15016KT 16/05 A2975 RMK A01 T01550045  RH  048%=      5-min Rain = 0
KCA1 200329Z 16017KT 16/04 A2975 RMK A01 T01550044  RH  048%=      5-min Rain = 0
KCA1 200330Z 16017G22KT 16/04 A2975 RMK A01 T01550044  RH  048%=      5-min Rain = 0
KCA1 200331Z 16014KT 16/04 A2975 RMK A01 T01550044  RH  048%=      5-min Rain = 0
KCA1 200332Z 16015G20KT 15/04 A2975 RMK A01 T01540044  RH  048%=      5-min Rain = 0
KCA1 200333Z 16015KT 15/04 A2975 RMK A01 T01540044  RH  048%=      5-min Rain = 0
KCA1 200334Z 16015KT 15/04 A2975 RMK A01 T01530044  RH  048%=      5-min Rain = 0
KCA1 200335Z 15016KT 15/04 A2975 RMK A01 T01530043  RH  048%=      5-min Rain = 0
KCA1 200336Z 16016KT 15/04 A2975 RMK A01 T01530043  RH  048%=      5-min Rain = 0
KCA1 200337Z 16017G24KT 15/04 A2975 RMK A01 T01530043  RH  048%=      5-min Rain = 0
KCA1 200338Z 16016G21KT 15/04 A2975 RMK A01 T01530043  RH  048%=      5-min Rain = 0
KCA1 200339Z 16017KT 15/04 A2975 RMK A01 T01540043  RH  048%=      5-min Rain = 0
KCA1 200340Z 15015KT 15/04 A2975 RMK A01 T01540043  RH  048%=      5-min Rain = 0
KCA1 200341Z 16016G22KT 15/04 A2975 RMK A01 T01530043  RH  048%=      5-min Rain = 0
KCA1 200342Z 16018KT 15/04 A2975 RMK A01 T01530043  RH  048%=      5-min Rain = 0
KCA1 200343Z 16017KT 15/04 A2975 RMK A01 T01530043  RH  048%=      5-min Rain = 0
KCA1 200344Z 16016KT 15/04 A2975 RMK A01 T01530043  RH  048%=      5-min Rain = 0
KCA1 200345Z 16016KT 15/04 A2975 RMK A01 T01520043  RH  048%=      5-min Rain = 0
KCA1 200346Z 15015KT 15/04 A2975 RMK A01 T01520043  RH  048%=      5-min Rain = 0
KCA1 200347Z 16016G21KT 15/04 A2975 RMK A01 T01510042  RH  048%=      5-min Rain = 0
KCA1 200348Z 16014G20KT 15/04 A2975 RMK A01 T01510043  RH  048%=      5-min Rain = 0
KCA1 200349Z 16015KT 15/04 A2975 RMK A01 T01510042  RH  048%=      5-min Rain = 0
KCA1 200350Z 15016KT 15/04 A2975 RMK A01 T01510042  RH  048%=      5-min Rain = 0
KCA1 200351Z 16014KT 15/04 A2975 RMK A01 T01500042  RH  048%=      5-min Rain = 0
KCA1 200352Z 16014KT 15/04 A2975 RMK A01 T01500042  RH  048%=      5-min Rain = 0
KCA1 200353Z 16017KT 15/04 A2975 RMK A01 T01490042  RH  049%=      5-min Rain = 0
KCA1 200354Z 15015KT 15/04 A2975 RMK A01 T01490042  RH  049%=      5-min Rain = 0
KCA1 200355Z 16016KT 15/04 A2975 RMK A01 T01490042  RH  049%=      5-min Rain = 0
KCA1 200356Z 15015KT 15/04 A2975 RMK A01 T01490042  RH  049%=      5-min Rain = 0
KCA1 200357Z 16016KT 15/04 A2975 RMK A01 T01490042  RH  049%=      5-min Rain = 0
KCA1 200358Z 15016KT 15/04 A2975 RMK A01 T01480042  RH  049%=      5-min Rain = 0
KCA1 200359Z 15014KT 15/04 A2975 RMK A01 T01480041  RH  049%=      5-min Rain = 0
KCA1 200400Z 16016KT 15/04 A2975 RMK A01 T01490042  RH  049%=      5-min Rain = 0
KCA1 200401Z 16015KT 15/04 A2975 RMK A01 T01480041  RH  049%=      5-min Rain = 0
KCA1 200402Z 15014KT 15/04 A2975 RMK A01 T01480041  RH  049%=      5-min Rain = 0
KCA1 200403Z 16016KT 15/04 A2975 RMK A01 T01470041  RH  049%=      5-min Rain = 0
KCA1 200404Z 15015KT 15/04 A2975 RMK A01 T01470041  RH  049%=      5-min Rain = 0
KCA1 200405Z 16016KT 15/04 A2975 RMK A01 T01470041  RH  049%=      5-min Rain = 0
KCA1 200406Z 15016KT 15/04 A2975 RMK A01 T01470041  RH  049%=      5-min Rain = 0
KCA1 200407Z 15016G22KT 15/04 A2975 RMK A01 T01470041  RH  049%=      5-min Rain = 0
KCA1 200408Z 15016KT 15/04 A2975 RMK A01 T01470041  RH  049%=      5-min Rain = 0
KCA1 200409Z 16015KT 15/04 A2975 RMK A01 T01470041  RH  049%=      5-min Rain = 0
KCA1 200410Z 16016G22KT 15/04 A2975 RMK A01 T01470041  RH  049%=      5-min Rain = 0
KCA1 200411Z 16016KT 15/04 A2975 RMK A01 T01470041  RH  049%=      5-min Rain = 0
KCA1 200412Z 15013KT 15/04 A2975 RMK A01 T01470041  RH  049%=      5-min Rain = 0
KCA1 200413Z 16017KT 15/04 A2975 RMK A01 T01460040  RH  049%=      5-min Rain = 0
KCA1 200414Z 15013KT 15/04 A2975 RMK A01 T01460041  RH  049%=      5-min Rain = 0
KCA1 200415Z 16015KT 15/04 A2975 RMK A01 T01450040  RH  049%=      5-min Rain = 0
KCA1 200416Z 16015KT 15/04 A2975 RMK A01 T01450041  RH  049%=      5-min Rain = 0
KCA1 200417Z 16015KT 15/04 A2975 RMK A01 T01450040  RH  049%=      5-min Rain = 0
KCA1 200418Z 15014KT 15/04 A2975 RMK A01 T01450040  RH  049%=      5-min Rain = 0
KCA1 200419Z 16015KT 14/04 A2975 RMK A01 T01440040  RH  049%=      5-min Rain = 0
KCA1 200420Z 15015KT 14/04 A2975 RMK A01 T01440040  RH  050%=      5-min Rain = 0
KCA1 200421Z 16015G20KT 14/04 A2975 RMK A01 T01440040  RH  050%=      5-min Rain = 0
KCA1 200422Z 15015KT 14/04 A2975 RMK A01 T01440040  RH  049%=      5-min Rain = 0
KCA1 200423Z 16016G22KT 14/04 A2975 RMK A01 T01440040  RH  050%=      5-min Rain = 0
KCA1 200424Z 16017KT 14/04 A2975 RMK A01 T01440040  RH  050%=      5-min Rain = 0
KCA1 200425Z 16016KT 14/04 A2975 RMK A01 T01440039  RH  049%=      5-min Rain = 0
KCA1 200426Z 15014G19KT 14/04 A2975 RMK A01 T01440040  RH  049%=      5-min Rain = 0
KCA1 200427Z 16015G20KT 14/04 A2975 RMK A01 T01440039  RH  049%=      5-min Rain = 0
KCA1 200428Z 15018KT 14/04 A2975 RMK A01 T01440039  RH  049%=      5-min Rain = 0
KCA1 200429Z 16015KT 15/04 A2975 RMK A01 T01450039  RH  049%=      5-min Rain = 0
KCA1 200430Z 16014KT 15/04 A2975 RMK A01 T01450039  RH  049%=      5-min Rain = 0
KCA1 200431Z 16015KT 14/04 A2975 RMK A01 T01440039  RH  049%=      5-min Rain = 0
KCA1 200432Z 16017KT 14/04 A2975 RMK A01 T01440039  RH  049%=      5-min Rain = 0
KCA1 200433Z 16014KT 15/04 A2975 RMK A01 T01450039  RH  049%=      5-min Rain = 0
KCA1 200434Z 16015KT 15/04 A2975 RMK A01 T01450039  RH  049%=      5-min Rain = 0
KCA1 200435Z 16015KT 15/04 A2975 RMK A01 T01450039  RH  049%=      5-min Rain = 0
KCA1 200436Z 16016KT 14/04 A2975 RMK A01 T01440038  RH  049%=      5-min Rain = 0
KCA1 200437Z 16014KT 14/04 A2975 RMK A01 T01440038  RH  049%=      5-min Rain = 0
KCA1 200438Z 16016KT 14/04 A2975 RMK A01 T01440038  RH  049%=      5-min Rain = 0
KCA1 200439Z 16014KT 14/04 A2975 RMK A01 T01440038  RH  049%=      5-min Rain = 0
KCA1 200440Z 15013KT 14/04 A2975 RMK A01 T01440038  RH  049%=      5-min Rain = 0
KCA1 200441Z 16013KT 14/04 A2975 RMK A01 T01430038  RH  049%=      5-min Rain = 0
KCA1 200442Z 16013KT 14/04 A2975 RMK A01 T01430038  RH  049%=      5-min Rain = 0
KCA1 200443Z 16013KT 14/04 A2975 RMK A01 T01420038  RH  049%=      5-min Rain = 0
KCA1 200444Z 16013KT 14/04 A2975 RMK A01 T01420038  RH  050%=      5-min Rain = 0
KCA1 200445Z 16014KT 14/04 A2975 RMK A01 T01410038  RH  050%=      5-min Rain = 0
KCA1 200446Z 16015KT 14/04 A2975 RMK A01 T01410038  RH  050%=      5-min Rain = 0
KCA1 200447Z 16012KT 14/04 A2975 RMK A01 T01410038  RH  050%=      5-min Rain = 0
KCA1 200448Z 16013KT 14/04 A2975 RMK A01 T01410038  RH  050%=      5-min Rain = 0
KCA1 200449Z 16012KT 14/04 A2975 RMK A01 T01400037  RH  050%=      5-min Rain = 0
KCA1 200450Z 16011KT 14/04 A2975 RMK A01 T01400038  RH  050%=      5-min Rain = 0
KCA1 200451Z 16012KT 14/04 A2975 RMK A01 T01400037  RH  050%=      5-min Rain = 0
KCA1 200452Z 16012KT 14/04 A2975 RMK A01 T01400038  RH  050%=      5-min Rain = 0
KCA1 200453Z 16011KT 14/04 A2975 RMK A01 T01400038  RH  050%=      5-min Rain = 0
KCA1 200454Z 16011KT 14/04 A2975 RMK A01 T01390037  RH  050%=      5-min Rain = 0
KCA1 200455Z 16011KT 14/04 A2975 RMK A01 T01390037  RH  050%=      5-min Rain = 0
KCA1 200456Z 16011KT 14/04 A2975 RMK A01 T01380037  RH  050%=      5-min Rain = 0
KCA1 200457Z 16013KT 14/04 A2975 RMK A01 T01380038  RH  051%=      5-min Rain = 0
KCA1 200458Z 16012KT 14/04 A2975 RMK A01 T01380037  RH  051%=      5-min Rain = 0
KCA1 200459Z 15013KT 14/04 A2975 RMK A01 T01380037  RH  051%=      5-min Rain = 0
KCA1 200500Z 15011KT 14/04 A2975 RMK A01 T01380037  RH  050%=      5-min Rain = 0
KCA1 200501Z 16013KT 14/04 A2975 RMK A01 T01380037  RH  050%=      5-min Rain = 0
KCA1 200502Z 16012KT 14/04 A2975 RMK A01 T01380037  RH  050%=      5-min Rain = 0
KCA1 200503Z 16012G18KT 14/04 A2975 RMK A01 T01380037  RH  050%=      5-min Rain = 0
KCA1 200504Z 16011KT 14/04 A2975 RMK A01 T01380037  RH  050%=      5-min Rain = 0
KCA1 200505Z 16013KT 14/04 A2975 RMK A01 T01380037  RH  050%=      5-min Rain = 0
KCA1 200506Z 16011KT 14/04 A2975 RMK A01 T01380037  RH  050%=      5-min Rain = 0
KCA1 200507Z 16012KT 14/04 A2975 RMK A01 T01380037  RH  050%=      5-min Rain = 0
KCA1 200508Z 16011KT 14/04 A2975 RMK A01 T01380037  RH  050%=      5-min Rain = 0
KCA1 200509Z 16012G17KT 14/04 A2975 RMK A01 T01380037  RH  050%=      5-min Rain = 0
KCA1 200510Z 16011KT 14/04 A2975 RMK A01 T01380037  RH  050%=      5-min Rain = 0
KCA1 200511Z 16010KT 14/04 A2975 RMK A01 T01380036  RH  050%=      5-min Rain = 0
KCA1 200512Z 15011KT 14/04 A2975 RMK A01 T01380036  RH  050%=      5-min Rain = 0
KCA1 200513Z 16011KT 14/04 A2975 RMK A01 T01380036  RH  050%=      5-min Rain = 0
KCA1 200514Z 16008KT 14/04 A2975 RMK A01 T01380036  RH  050%=      5-min Rain = 0
KCA1 200515Z 16009KT 14/04 A2975 RMK A01 T01370036  RH  050%=      5-min Rain = 0
KCA1 200516Z 16009KT 14/04 A2975 RMK A01 T01370036  RH  051%=      5-min Rain = 0
KCA1 200517Z 15009KT 14/04 A2975 RMK A01 T01360036  RH  051%=      5-min Rain = 0
KCA1 200518Z 15008KT 14/04 A2975 RMK A01 T01360036  RH  051%=      5-min Rain = 0
KCA1 200519Z 15009KT 14/04 A2975 RMK A01 T01360036  RH  051%=      5-min Rain = 0
KCA1 200520Z 15009KT 14/04 A2975 RMK A01 T01360036  RH  051%=      5-min Rain = 0
KCA1 200521Z 15009KT 14/04 A2975 RMK A01 T01360036  RH  051%=      5-min Rain = 0
KCA1 200522Z 15009KT 14/04 A2975 RMK A01 T01360036  RH  051%=      5-min Rain = 0
KCA1 200523Z 15009KT 14/04 A2975 RMK A01 T01360036  RH  051%=      5-min Rain = 0
KCA1 200524Z 15008KT 14/04 A2975 RMK A01 T01360036  RH  051%=      5-min Rain = 0
KCA1 200525Z 14007KT 14/04 A2975 RMK A01 T01360036  RH  051%=      5-min Rain = 0
KCA1 200526Z 15009KT 14/04 A2975 RMK A01 T01350036  RH  051%=      5-min Rain = 0
KCA1 200527Z 14010KT 14/04 A2975 RMK A01 T01350036  RH  051%=      5-min Rain = 0
KCA1 200528Z 15009KT 14/04 A2975 RMK A01 T01360036  RH  051%=      5-min Rain = 0
KCA1 200529Z 14007KT 14/04 A2975 RMK A01 T01360036  RH  051%=      5-min Rain = 0
KCA1 200530Z 15008KT 14/04 A2975 RMK A01 T01360036  RH  051%=      5-min Rain = 0
KCA1 200531Z 14009KT 14/04 A2975 RMK A01 T01350035  RH  051%=      5-min Rain = 0
KCA1 200532Z 14008KT 14/04 A2975 RMK A01 T01350036  RH  051%=      5-min Rain = 0
KCA1 200533Z 14006KT 14/04 A2975 RMK A01 T01350035  RH  051%=      5-min Rain = 0
KCA1 200534Z 15009KT 14/04 A2975 RMK A01 T01350036  RH  051%=      5-min Rain = 0
KCA1 200535Z 14008KT 14/04 A2974 RMK A01 T01350036  RH  051%=      5-min Rain = 0
KCA1 200536Z 14009KT 14/04 A2974 RMK A01 T01350036  RH  051%=      5-min Rain = 0
KCA1 200537Z 14009KT 14/04 A2974 RMK A01 T01350036  RH  051%=      5-min Rain = 0
KCA1 200538Z 14008KT 14/04 A2974 RMK A01 T01360036  RH  051%=      5-min Rain = 0
KCA1 200539Z 14010KT 14/04 A2974 RMK A01 T01360036  RH  051%=      5-min Rain = 0
KCA1 200540Z 14009KT 14/04 A2974 RMK A01 T01360036  RH  051%=      5-min Rain = 0
KCA1 200541Z 14009KT 14/04 A2974 RMK A01 T01360036  RH  051%=      5-min Rain = 0
KCA1 200542Z 14009KT 14/04 A2974 RMK A01 T01360036  RH  051%=      5-min Rain = 0
KCA1 200543Z 14007KT 14/04 A2974 RMK A01 T01360036  RH  051%=      5-min Rain = 0
KCA1 200544Z 14009KT 14/04 A2974 RMK A01 T01350036  RH  051%=      5-min Rain = 0
KCA1 200545Z 14011KT 14/04 A2974 RMK A01 T01360036  RH  051%=      5-min Rain = 0
KCA1 200546Z 14009KT 14/04 A2974 RMK A01 T01350036  RH  051%=      5-min Rain = 0
KCA1 200547Z 13009KT 14/04 A2974 RMK A01 T01360036  RH  051%=      5-min Rain = 0
KCA1 200548Z 14008KT 14/04 A2974 RMK A01 T01360036  RH  051%=      5-min Rain = 0
KCA1 200549Z 14007KT 14/04 A2974 RMK A01 T01360036  RH  051%=      5-min Rain = 0
KCA1 200550Z 14007KT 14/04 A2974 RMK A01 T01350036  RH  051%=      5-min Rain = 0
KCA1 200551Z 15008KT 14/04 A2974 RMK A01 T01350037  RH  051%=      5-min Rain = 0
KCA1 200552Z 14008KT 14/04 A2974 RMK A01 T01350037  RH  052%=      5-min Rain = 0
KCA1 200553Z 15009KT 14/04 A2974 RMK A01 T01350037  RH  052%=      5-min Rain = 0
KCA1 200554Z 14007KT 14/04 A2974 RMK A01 T01350037  RH  052%=      5-min Rain = 0
KCA1 200555Z 14009KT 14/04 A2974 RMK A01 T01360038  RH  052%=      5-min Rain = 0
KCA1 200556Z 15008G15KT 14/04 A2974 RMK A01 T01360038  RH  051%=      5-min Rain = 0
KCA1 200557Z 15008KT 14/04 A2974 RMK A01 T01360038  RH  051%=      5-min Rain = 0
KCA1 200558Z 15007KT 14/04 A2974 RMK A01 T01360038  RH  052%=      5-min Rain = 0
KCA1 200559Z 15009KT 14/04 A2974 RMK A01 T01360038  RH  052%=      5-min Rain = 0

Page generated in 0.1306 seconds.